<?xml version="1.0" encoding="UTF-8" standalone="no" ?>
<gpx xmlns="http://www.topografix.com/GPX/1/1" xmlns:xsi="http://www.w3.org/2001/XMLSchema-instance" xsi:schemaLocation="http://www.topografix.com/GPX/1/1 http://www.topografix.com/GPX/1/1/gpx.xsd" version="1.1" creator="VisuGPX - https://www.visugpx.com">
  <metadata>
    <name>Les croix des chemins</name>
    <desc><![CDATA[Découvrez la richesse la richesse du patrimoine de Liézey lors d'une balade de 7.5km]]></desc>
  </metadata>
  <trk>
    <name><![CDATA[Hiking 12/3/15 9:57 am]]></name>
    <trkseg>
      <trkpt lat="48.09434" lon="6.80427">
        <ele>751</ele>
        <time>2015-12-03T08:57:00Z</time>
      </trkpt>
      <trkpt lat="48.09434" lon="6.80427">
        <ele>751</ele>
        <time>2015-12-03T08:57:02Z</time>
      </trkpt>
      <trkpt lat="48.09442" lon="6.80433">
        <ele>751</ele>
        <time>2015-12-03T08:57:07Z</time>
      </trkpt>
      <trkpt lat="48.09448" lon="6.80442">
        <ele>751</ele>
        <time>2015-12-03T08:58:04Z</time>
      </trkpt>
      <trkpt lat="48.09447" lon="6.80455">
        <ele>751</ele>
        <time>2015-12-03T08:58:11Z</time>
      </trkpt>
      <trkpt lat="48.09445" lon="6.80443">
        <ele>751</ele>
        <time>2015-12-03T08:58:51Z</time>
      </trkpt>
      <trkpt lat="48.09437" lon="6.80442">
        <ele>751</ele>
        <time>2015-12-03T08:59:02Z</time>
      </trkpt>
      <trkpt lat="48.09429" lon="6.80443">
        <ele>751</ele>
        <time>2015-12-03T08:59:10Z</time>
      </trkpt>
      <trkpt lat="48.09421" lon="6.8044">
        <ele>751.3</ele>
        <time>2015-12-03T08:59:18Z</time>
      </trkpt>
      <trkpt lat="48.09429" lon="6.80437">
        <ele>751.5</ele>
        <time>2015-12-03T08:59:55Z</time>
      </trkpt>
      <trkpt lat="48.09438" lon="6.80436">
        <ele>751.8</ele>
        <time>2015-12-03T09:00:02Z</time>
      </trkpt>
      <trkpt lat="48.09442" lon="6.80446">
        <ele>752.1</ele>
        <time>2015-12-03T09:00:12Z</time>
      </trkpt>
      <trkpt lat="48.09443" lon="6.8046">
        <ele>752.4</ele>
        <time>2015-12-03T09:00:20Z</time>
      </trkpt>
      <trkpt lat="48.09442" lon="6.80473">
        <ele>753.4</ele>
        <time>2015-12-03T09:00:30Z</time>
      </trkpt>
      <trkpt lat="48.09442" lon="6.80487">
        <ele>754.4</ele>
        <time>2015-12-03T09:00:36Z</time>
      </trkpt>
      <trkpt lat="48.09443" lon="6.805">
        <ele>755.4</ele>
        <time>2015-12-03T09:00:42Z</time>
      </trkpt>
      <trkpt lat="48.0945" lon="6.80508">
        <ele>756.4</ele>
        <time>2015-12-03T09:00:49Z</time>
      </trkpt>
      <trkpt lat="48.09459" lon="6.80511">
        <ele>757.4</ele>
        <time>2015-12-03T09:00:57Z</time>
      </trkpt>
      <trkpt lat="48.09468" lon="6.80511">
        <ele>758.4</ele>
        <time>2015-12-03T09:01:04Z</time>
      </trkpt>
      <trkpt lat="48.09477" lon="6.80511">
        <ele>759.1</ele>
        <time>2015-12-03T09:01:11Z</time>
      </trkpt>
      <trkpt lat="48.09485" lon="6.80512">
        <ele>759.8</ele>
        <time>2015-12-03T09:01:18Z</time>
      </trkpt>
      <trkpt lat="48.09494" lon="6.80512">
        <ele>760.5</ele>
        <time>2015-12-03T09:01:26Z</time>
      </trkpt>
      <trkpt lat="48.09504" lon="6.80511">
        <ele>761.3</ele>
        <time>2015-12-03T09:01:34Z</time>
      </trkpt>
      <trkpt lat="48.09512" lon="6.80509">
        <ele>763</ele>
        <time>2015-12-03T09:01:41Z</time>
      </trkpt>
      <trkpt lat="48.0952" lon="6.80507">
        <ele>764</ele>
        <time>2015-12-03T09:01:48Z</time>
      </trkpt>
      <trkpt lat="48.09529" lon="6.80505">
        <ele>765</ele>
        <time>2015-12-03T09:01:55Z</time>
      </trkpt>
      <trkpt lat="48.09537" lon="6.80503">
        <ele>766</ele>
        <time>2015-12-03T09:02:02Z</time>
      </trkpt>
      <trkpt lat="48.09546" lon="6.80502">
        <ele>767</ele>
        <time>2015-12-03T09:02:10Z</time>
      </trkpt>
      <trkpt lat="48.09554" lon="6.80503">
        <ele>768</ele>
        <time>2015-12-03T09:02:18Z</time>
      </trkpt>
      <trkpt lat="48.09563" lon="6.80503">
        <ele>769</ele>
        <time>2015-12-03T09:02:26Z</time>
      </trkpt>
      <trkpt lat="48.09572" lon="6.80503">
        <ele>770</ele>
        <time>2015-12-03T09:02:33Z</time>
      </trkpt>
      <trkpt lat="48.09579" lon="6.80508">
        <ele>771</ele>
        <time>2015-12-03T09:02:41Z</time>
      </trkpt>
      <trkpt lat="48.09584" lon="6.80519">
        <ele>772</ele>
        <time>2015-12-03T09:02:51Z</time>
      </trkpt>
      <trkpt lat="48.0959" lon="6.80528">
        <ele>773</ele>
        <time>2015-12-03T09:02:59Z</time>
      </trkpt>
      <trkpt lat="48.09594" lon="6.80539">
        <ele>773</ele>
        <time>2015-12-03T09:03:06Z</time>
      </trkpt>
      <trkpt lat="48.09596" lon="6.80553">
        <ele>773</ele>
        <time>2015-12-03T09:03:15Z</time>
      </trkpt>
      <trkpt lat="48.09598" lon="6.80565">
        <ele>773</ele>
        <time>2015-12-03T09:03:22Z</time>
      </trkpt>
      <trkpt lat="48.096" lon="6.80578">
        <ele>773.1</ele>
        <time>2015-12-03T09:03:29Z</time>
      </trkpt>
      <trkpt lat="48.09602" lon="6.80591">
        <ele>773.2</ele>
        <time>2015-12-03T09:03:36Z</time>
      </trkpt>
      <trkpt lat="48.09606" lon="6.80602">
        <ele>774.4</ele>
        <time>2015-12-03T09:03:43Z</time>
      </trkpt>
      <trkpt lat="48.09611" lon="6.80614">
        <ele>775.5</ele>
        <time>2015-12-03T09:03:50Z</time>
      </trkpt>
      <trkpt lat="48.09617" lon="6.80623">
        <ele>776.7</ele>
        <time>2015-12-03T09:03:58Z</time>
      </trkpt>
      <trkpt lat="48.09621" lon="6.80633">
        <ele>777.9</ele>
        <time>2015-12-03T09:04:06Z</time>
      </trkpt>
      <trkpt lat="48.09626" lon="6.80643">
        <ele>779.1</ele>
        <time>2015-12-03T09:04:14Z</time>
      </trkpt>
      <trkpt lat="48.09632" lon="6.80654">
        <ele>780.3</ele>
        <time>2015-12-03T09:04:25Z</time>
      </trkpt>
      <trkpt lat="48.09635" lon="6.80664">
        <ele>781.5</ele>
        <time>2015-12-03T09:04:37Z</time>
      </trkpt>
      <trkpt lat="48.0964" lon="6.80677">
        <ele>782.6</ele>
        <time>2015-12-03T09:04:42Z</time>
      </trkpt>
      <trkpt lat="48.09645" lon="6.80687">
        <ele>783.8</ele>
        <time>2015-12-03T09:04:49Z</time>
      </trkpt>
      <trkpt lat="48.09649" lon="6.80699">
        <ele>784.9</ele>
        <time>2015-12-03T09:04:55Z</time>
      </trkpt>
      <trkpt lat="48.09649" lon="6.80711">
        <ele>786</ele>
        <time>2015-12-03T09:05:02Z</time>
      </trkpt>
      <trkpt lat="48.09655" lon="6.8072">
        <ele>786</ele>
        <time>2015-12-03T09:05:47Z</time>
      </trkpt>
      <trkpt lat="48.09653" lon="6.80707">
        <ele>786</ele>
        <time>2015-12-03T09:06:00Z</time>
      </trkpt>
      <trkpt lat="48.09661" lon="6.80707">
        <ele>786</ele>
        <time>2015-12-03T09:06:11Z</time>
      </trkpt>
      <trkpt lat="48.09669" lon="6.80713">
        <ele>787.6</ele>
        <time>2015-12-03T09:06:18Z</time>
      </trkpt>
      <trkpt lat="48.09677" lon="6.80716">
        <ele>789.3</ele>
        <time>2015-12-03T09:06:26Z</time>
      </trkpt>
      <trkpt lat="48.09686" lon="6.80713">
        <ele>790.9</ele>
        <time>2015-12-03T09:06:44Z</time>
      </trkpt>
      <trkpt lat="48.09695" lon="6.80708">
        <ele>792.5</ele>
        <time>2015-12-03T09:06:52Z</time>
      </trkpt>
      <trkpt lat="48.09705" lon="6.80705">
        <ele>793.7</ele>
        <time>2015-12-03T09:06:57Z</time>
      </trkpt>
      <trkpt lat="48.09714" lon="6.80705">
        <ele>794.9</ele>
        <time>2015-12-03T09:07:04Z</time>
      </trkpt>
      <trkpt lat="48.09722" lon="6.80707">
        <ele>796.1</ele>
        <time>2015-12-03T09:07:09Z</time>
      </trkpt>
      <trkpt lat="48.0973" lon="6.80707">
        <ele>797.3</ele>
        <time>2015-12-03T09:07:16Z</time>
      </trkpt>
      <trkpt lat="48.09738" lon="6.80714">
        <ele>798.5</ele>
        <time>2015-12-03T09:07:23Z</time>
      </trkpt>
      <trkpt lat="48.09744" lon="6.80723">
        <ele>799.6</ele>
        <time>2015-12-03T09:07:31Z</time>
      </trkpt>
      <trkpt lat="48.0975" lon="6.80734">
        <ele>800.8</ele>
        <time>2015-12-03T09:07:43Z</time>
      </trkpt>
      <trkpt lat="48.09758" lon="6.80739">
        <ele>802.4</ele>
        <time>2015-12-03T09:07:50Z</time>
      </trkpt>
      <trkpt lat="48.09767" lon="6.80743">
        <ele>803.9</ele>
        <time>2015-12-03T09:07:55Z</time>
      </trkpt>
      <trkpt lat="48.09776" lon="6.80746">
        <ele>805.5</ele>
        <time>2015-12-03T09:08:02Z</time>
      </trkpt>
      <trkpt lat="48.09782" lon="6.80754">
        <ele>807</ele>
        <time>2015-12-03T09:08:09Z</time>
      </trkpt>
      <trkpt lat="48.0979" lon="6.8076">
        <ele>808.2</ele>
        <time>2015-12-03T09:08:19Z</time>
      </trkpt>
      <trkpt lat="48.09795" lon="6.8077">
        <ele>809.4</ele>
        <time>2015-12-03T09:08:25Z</time>
      </trkpt>
      <trkpt lat="48.09801" lon="6.8078">
        <ele>810.5</ele>
        <time>2015-12-03T09:08:32Z</time>
      </trkpt>
      <trkpt lat="48.09805" lon="6.80789">
        <ele>811.7</ele>
        <time>2015-12-03T09:08:39Z</time>
      </trkpt>
      <trkpt lat="48.09813" lon="6.80798">
        <ele>812.9</ele>
        <time>2015-12-03T09:08:48Z</time>
      </trkpt>
      <trkpt lat="48.09818" lon="6.8081">
        <ele>814.1</ele>
        <time>2015-12-03T09:08:58Z</time>
      </trkpt>
      <trkpt lat="48.09823" lon="6.8082">
        <ele>815.3</ele>
        <time>2015-12-03T09:09:21Z</time>
      </trkpt>
      <trkpt lat="48.09828" lon="6.8083">
        <ele>814.5</ele>
        <time>2015-12-03T09:09:26Z</time>
      </trkpt>
      <trkpt lat="48.09835" lon="6.80839">
        <ele>813</ele>
        <time>2015-12-03T09:09:31Z</time>
      </trkpt>
      <trkpt lat="48.09842" lon="6.80846">
        <ele>811.5</ele>
        <time>2015-12-03T09:09:35Z</time>
      </trkpt>
      <trkpt lat="48.09851" lon="6.80854">
        <ele>810.1</ele>
        <time>2015-12-03T09:09:39Z</time>
      </trkpt>
      <trkpt lat="48.09858" lon="6.80864">
        <ele>809.5</ele>
        <time>2015-12-03T09:09:43Z</time>
      </trkpt>
      <trkpt lat="48.0986" lon="6.80877">
        <ele>810.8</ele>
        <time>2015-12-03T09:09:49Z</time>
      </trkpt>
      <trkpt lat="48.09858" lon="6.8089">
        <ele>812.2</ele>
        <time>2015-12-03T09:09:57Z</time>
      </trkpt>
      <trkpt lat="48.09861" lon="6.80902">
        <ele>813.5</ele>
        <time>2015-12-03T09:10:05Z</time>
      </trkpt>
      <trkpt lat="48.09866" lon="6.80912">
        <ele>814.9</ele>
        <time>2015-12-03T09:10:13Z</time>
      </trkpt>
      <trkpt lat="48.09871" lon="6.80922">
        <ele>816.3</ele>
        <time>2015-12-03T09:10:23Z</time>
      </trkpt>
      <trkpt lat="48.09876" lon="6.80932">
        <ele>817.4</ele>
        <time>2015-12-03T09:10:31Z</time>
      </trkpt>
      <trkpt lat="48.09883" lon="6.80941">
        <ele>818.5</ele>
        <time>2015-12-03T09:10:39Z</time>
      </trkpt>
      <trkpt lat="48.0989" lon="6.8095">
        <ele>820.2</ele>
        <time>2015-12-03T09:10:47Z</time>
      </trkpt>
      <trkpt lat="48.09897" lon="6.8096">
        <ele>821.9</ele>
        <time>2015-12-03T09:10:54Z</time>
      </trkpt>
      <trkpt lat="48.09904" lon="6.80967">
        <ele>823.6</ele>
        <time>2015-12-03T09:11:04Z</time>
      </trkpt>
      <trkpt lat="48.09909" lon="6.80977">
        <ele>825.4</ele>
        <time>2015-12-03T09:11:12Z</time>
      </trkpt>
      <trkpt lat="48.09914" lon="6.80988">
        <ele>825.1</ele>
        <time>2015-12-03T09:11:22Z</time>
      </trkpt>
      <trkpt lat="48.0992" lon="6.80996">
        <ele>824.8</ele>
        <time>2015-12-03T09:11:31Z</time>
      </trkpt>
      <trkpt lat="48.09927" lon="6.81005">
        <ele>824.5</ele>
        <time>2015-12-03T09:11:40Z</time>
      </trkpt>
      <trkpt lat="48.09934" lon="6.81011">
        <ele>826</ele>
        <time>2015-12-03T09:11:48Z</time>
      </trkpt>
      <trkpt lat="48.09942" lon="6.81018">
        <ele>827.5</ele>
        <time>2015-12-03T09:11:57Z</time>
      </trkpt>
      <trkpt lat="48.09948" lon="6.81026">
        <ele>829.2</ele>
        <time>2015-12-03T09:12:06Z</time>
      </trkpt>
      <trkpt lat="48.09955" lon="6.81033">
        <ele>830.9</ele>
        <time>2015-12-03T09:12:15Z</time>
      </trkpt>
      <trkpt lat="48.09961" lon="6.81043">
        <ele>832.6</ele>
        <time>2015-12-03T09:12:23Z</time>
      </trkpt>
      <trkpt lat="48.09967" lon="6.81052">
        <ele>834.4</ele>
        <time>2015-12-03T09:12:31Z</time>
      </trkpt>
      <trkpt lat="48.09971" lon="6.81064">
        <ele>836.1</ele>
        <time>2015-12-03T09:12:40Z</time>
      </trkpt>
      <trkpt lat="48.09977" lon="6.81073">
        <ele>837.8</ele>
        <time>2015-12-03T09:12:49Z</time>
      </trkpt>
      <trkpt lat="48.09985" lon="6.81077">
        <ele>839.5</ele>
        <time>2015-12-03T09:12:57Z</time>
      </trkpt>
      <trkpt lat="48.09992" lon="6.81082">
        <ele>841.3</ele>
        <time>2015-12-03T09:13:04Z</time>
      </trkpt>
      <trkpt lat="48.09999" lon="6.81089">
        <ele>843</ele>
        <time>2015-12-03T09:13:10Z</time>
      </trkpt>
      <trkpt lat="48.10002" lon="6.811">
        <ele>842.5</ele>
        <time>2015-12-03T09:13:22Z</time>
      </trkpt>
      <trkpt lat="48.1001" lon="6.81106">
        <ele>842.1</ele>
        <time>2015-12-03T09:13:28Z</time>
      </trkpt>
      <trkpt lat="48.10016" lon="6.81115">
        <ele>841.6</ele>
        <time>2015-12-03T09:13:35Z</time>
      </trkpt>
      <trkpt lat="48.10021" lon="6.81125">
        <ele>843.3</ele>
        <time>2015-12-03T09:13:43Z</time>
      </trkpt>
      <trkpt lat="48.10028" lon="6.8113">
        <ele>844.9</ele>
        <time>2015-12-03T09:13:54Z</time>
      </trkpt>
      <trkpt lat="48.10034" lon="6.81141">
        <ele>846.5</ele>
        <time>2015-12-03T09:14:03Z</time>
      </trkpt>
      <trkpt lat="48.10039" lon="6.81152">
        <ele>848.2</ele>
        <time>2015-12-03T09:14:12Z</time>
      </trkpt>
      <trkpt lat="48.10045" lon="6.81163">
        <ele>849.6</ele>
        <time>2015-12-03T09:14:19Z</time>
      </trkpt>
      <trkpt lat="48.10049" lon="6.81175">
        <ele>851.1</ele>
        <time>2015-12-03T09:14:29Z</time>
      </trkpt>
      <trkpt lat="48.10052" lon="6.81188">
        <ele>852.5</ele>
        <time>2015-12-03T09:14:39Z</time>
      </trkpt>
      <trkpt lat="48.10058" lon="6.81198">
        <ele>854</ele>
        <time>2015-12-03T09:14:45Z</time>
      </trkpt>
      <trkpt lat="48.10063" lon="6.81208">
        <ele>855.9</ele>
        <time>2015-12-03T09:14:54Z</time>
      </trkpt>
      <trkpt lat="48.10067" lon="6.8122">
        <ele>857.8</ele>
        <time>2015-12-03T09:15:04Z</time>
      </trkpt>
      <trkpt lat="48.10071" lon="6.81232">
        <ele>859.7</ele>
        <time>2015-12-03T09:15:11Z</time>
      </trkpt>
      <trkpt lat="48.10078" lon="6.8124">
        <ele>859.6</ele>
        <time>2015-12-03T09:15:16Z</time>
      </trkpt>
      <trkpt lat="48.10083" lon="6.81251">
        <ele>859.5</ele>
        <time>2015-12-03T09:15:23Z</time>
      </trkpt>
      <trkpt lat="48.10085" lon="6.81264">
        <ele>859.5</ele>
        <time>2015-12-03T09:15:31Z</time>
      </trkpt>
      <trkpt lat="48.1009" lon="6.81274">
        <ele>859.4</ele>
        <time>2015-12-03T09:15:39Z</time>
      </trkpt>
      <trkpt lat="48.1009" lon="6.81287">
        <ele>859.5</ele>
        <time>2015-12-03T09:15:50Z</time>
      </trkpt>
      <trkpt lat="48.10089" lon="6.813">
        <ele>859.5</ele>
        <time>2015-12-03T09:15:58Z</time>
      </trkpt>
      <trkpt lat="48.10091" lon="6.81313">
        <ele>859.6</ele>
        <time>2015-12-03T09:16:06Z</time>
      </trkpt>
      <trkpt lat="48.10095" lon="6.81325">
        <ele>859.9</ele>
        <time>2015-12-03T09:16:21Z</time>
      </trkpt>
      <trkpt lat="48.10097" lon="6.81337">
        <ele>860.2</ele>
        <time>2015-12-03T09:16:28Z</time>
      </trkpt>
      <trkpt lat="48.10101" lon="6.81349">
        <ele>860.5</ele>
        <time>2015-12-03T09:16:36Z</time>
      </trkpt>
      <trkpt lat="48.10106" lon="6.81359">
        <ele>861.8</ele>
        <time>2015-12-03T09:16:42Z</time>
      </trkpt>
      <trkpt lat="48.1011" lon="6.81371">
        <ele>863.1</ele>
        <time>2015-12-03T09:16:48Z</time>
      </trkpt>
      <trkpt lat="48.10114" lon="6.81383">
        <ele>864.4</ele>
        <time>2015-12-03T09:16:56Z</time>
      </trkpt>
      <trkpt lat="48.10119" lon="6.81394">
        <ele>865.6</ele>
        <time>2015-12-03T09:17:04Z</time>
      </trkpt>
      <trkpt lat="48.10125" lon="6.81402">
        <ele>866.9</ele>
        <time>2015-12-03T09:17:10Z</time>
      </trkpt>
      <trkpt lat="48.10131" lon="6.81413">
        <ele>868.2</ele>
        <time>2015-12-03T09:17:17Z</time>
      </trkpt>
      <trkpt lat="48.10138" lon="6.81421">
        <ele>869.3</ele>
        <time>2015-12-03T09:17:26Z</time>
      </trkpt>
      <trkpt lat="48.10146" lon="6.81428">
        <ele>870.4</ele>
        <time>2015-12-03T09:17:33Z</time>
      </trkpt>
      <trkpt lat="48.10153" lon="6.81435">
        <ele>871.3</ele>
        <time>2015-12-03T09:17:40Z</time>
      </trkpt>
      <trkpt lat="48.10158" lon="6.81446">
        <ele>872.2</ele>
        <time>2015-12-03T09:17:48Z</time>
      </trkpt>
      <trkpt lat="48.10166" lon="6.81453">
        <ele>873.1</ele>
        <time>2015-12-03T09:17:55Z</time>
      </trkpt>
      <trkpt lat="48.10169" lon="6.81465">
        <ele>872.9</ele>
        <time>2015-12-03T09:18:02Z</time>
      </trkpt>
      <trkpt lat="48.10172" lon="6.81478">
        <ele>872.7</ele>
        <time>2015-12-03T09:18:13Z</time>
      </trkpt>
      <trkpt lat="48.10173" lon="6.81491">
        <ele>872.6</ele>
        <time>2015-12-03T09:18:18Z</time>
      </trkpt>
      <trkpt lat="48.10173" lon="6.81504">
        <ele>872.5</ele>
        <time>2015-12-03T09:18:24Z</time>
      </trkpt>
      <trkpt lat="48.10175" lon="6.81517">
        <ele>872.5</ele>
        <time>2015-12-03T09:18:31Z</time>
      </trkpt>
      <trkpt lat="48.10175" lon="6.8153">
        <ele>872.4</ele>
        <time>2015-12-03T09:18:44Z</time>
      </trkpt>
      <trkpt lat="48.10176" lon="6.81542">
        <ele>872.5</ele>
        <time>2015-12-03T09:18:51Z</time>
      </trkpt>
      <trkpt lat="48.10179" lon="6.81555">
        <ele>872.5</ele>
        <time>2015-12-03T09:18:59Z</time>
      </trkpt>
      <trkpt lat="48.10181" lon="6.81568">
        <ele>872.9</ele>
        <time>2015-12-03T09:19:05Z</time>
      </trkpt>
      <trkpt lat="48.10183" lon="6.81582">
        <ele>873.3</ele>
        <time>2015-12-03T09:19:11Z</time>
      </trkpt>
      <trkpt lat="48.10188" lon="6.81593">
        <ele>873.6</ele>
        <time>2015-12-03T09:19:17Z</time>
      </trkpt>
      <trkpt lat="48.10192" lon="6.81605">
        <ele>874</ele>
        <time>2015-12-03T09:19:24Z</time>
      </trkpt>
      <trkpt lat="48.10197" lon="6.81615">
        <ele>874.4</ele>
        <time>2015-12-03T09:20:35Z</time>
      </trkpt>
      <trkpt lat="48.10194" lon="6.81627">
        <ele>874.6</ele>
        <time>2015-12-03T09:21:04Z</time>
      </trkpt>
      <trkpt lat="48.10192" lon="6.81639">
        <ele>874.9</ele>
        <time>2015-12-03T09:21:08Z</time>
      </trkpt>
      <trkpt lat="48.1019" lon="6.81652">
        <ele>875.2</ele>
        <time>2015-12-03T09:21:13Z</time>
      </trkpt>
      <trkpt lat="48.10188" lon="6.81666">
        <ele>875.1</ele>
        <time>2015-12-03T09:21:19Z</time>
      </trkpt>
      <trkpt lat="48.10186" lon="6.81678">
        <ele>875</ele>
        <time>2015-12-03T09:21:24Z</time>
      </trkpt>
      <trkpt lat="48.10184" lon="6.81691">
        <ele>874.9</ele>
        <time>2015-12-03T09:21:31Z</time>
      </trkpt>
      <trkpt lat="48.1018" lon="6.81703">
        <ele>874.5</ele>
        <time>2015-12-03T09:21:38Z</time>
      </trkpt>
      <trkpt lat="48.10178" lon="6.81716">
        <ele>874.2</ele>
        <time>2015-12-03T09:21:43Z</time>
      </trkpt>
      <trkpt lat="48.10176" lon="6.81729">
        <ele>873.8</ele>
        <time>2015-12-03T09:21:51Z</time>
      </trkpt>
      <trkpt lat="48.10172" lon="6.81741">
        <ele>873.5</ele>
        <time>2015-12-03T09:21:58Z</time>
      </trkpt>
      <trkpt lat="48.10167" lon="6.81751">
        <ele>872.5</ele>
        <time>2015-12-03T09:22:05Z</time>
      </trkpt>
      <trkpt lat="48.10163" lon="6.81763">
        <ele>871.5</ele>
        <time>2015-12-03T09:22:11Z</time>
      </trkpt>
      <trkpt lat="48.1016" lon="6.81775">
        <ele>870.5</ele>
        <time>2015-12-03T09:22:16Z</time>
      </trkpt>
      <trkpt lat="48.10158" lon="6.81788">
        <ele>869.5</ele>
        <time>2015-12-03T09:22:24Z</time>
      </trkpt>
      <trkpt lat="48.10155" lon="6.818">
        <ele>868.8</ele>
        <time>2015-12-03T09:22:31Z</time>
      </trkpt>
      <trkpt lat="48.10152" lon="6.81812">
        <ele>868.2</ele>
        <time>2015-12-03T09:22:37Z</time>
      </trkpt>
      <trkpt lat="48.1015" lon="6.81825">
        <ele>866.7</ele>
        <time>2015-12-03T09:22:44Z</time>
      </trkpt>
      <trkpt lat="48.10148" lon="6.81838">
        <ele>865.3</ele>
        <time>2015-12-03T09:22:51Z</time>
      </trkpt>
      <trkpt lat="48.10146" lon="6.81851">
        <ele>863.8</ele>
        <time>2015-12-03T09:22:59Z</time>
      </trkpt>
      <trkpt lat="48.10145" lon="6.81864">
        <ele>863.7</ele>
        <time>2015-12-03T09:23:04Z</time>
      </trkpt>
      <trkpt lat="48.10142" lon="6.81875">
        <ele>863.6</ele>
        <time>2015-12-03T09:23:12Z</time>
      </trkpt>
      <trkpt lat="48.10138" lon="6.81886">
        <ele>864.2</ele>
        <time>2015-12-03T09:23:19Z</time>
      </trkpt>
      <trkpt lat="48.10132" lon="6.81897">
        <ele>864.7</ele>
        <time>2015-12-03T09:23:26Z</time>
      </trkpt>
      <trkpt lat="48.10129" lon="6.81908">
        <ele>865.3</ele>
        <time>2015-12-03T09:23:35Z</time>
      </trkpt>
      <trkpt lat="48.10127" lon="6.81922">
        <ele>865.5</ele>
        <time>2015-12-03T09:23:42Z</time>
      </trkpt>
      <trkpt lat="48.10123" lon="6.81933">
        <ele>865.8</ele>
        <time>2015-12-03T09:23:48Z</time>
      </trkpt>
      <trkpt lat="48.10118" lon="6.81943">
        <ele>866.1</ele>
        <time>2015-12-03T09:23:55Z</time>
      </trkpt>
      <trkpt lat="48.10113" lon="6.81954">
        <ele>867.2</ele>
        <time>2015-12-03T09:24:00Z</time>
      </trkpt>
      <trkpt lat="48.10108" lon="6.81965">
        <ele>868.3</ele>
        <time>2015-12-03T09:24:07Z</time>
      </trkpt>
      <trkpt lat="48.10105" lon="6.81977">
        <ele>869.4</ele>
        <time>2015-12-03T09:24:13Z</time>
      </trkpt>
      <trkpt lat="48.10104" lon="6.8199">
        <ele>869.1</ele>
        <time>2015-12-03T09:24:19Z</time>
      </trkpt>
      <trkpt lat="48.10101" lon="6.82001">
        <ele>868.8</ele>
        <time>2015-12-03T09:24:25Z</time>
      </trkpt>
      <trkpt lat="48.10097" lon="6.82013">
        <ele>868.5</ele>
        <time>2015-12-03T09:24:32Z</time>
      </trkpt>
      <trkpt lat="48.10096" lon="6.82025">
        <ele>868.3</ele>
        <time>2015-12-03T09:24:46Z</time>
      </trkpt>
      <trkpt lat="48.10094" lon="6.82038">
        <ele>866.7</ele>
        <time>2015-12-03T09:24:55Z</time>
      </trkpt>
      <trkpt lat="48.10103" lon="6.82037">
        <ele>865.5</ele>
        <time>2015-12-03T09:25:04Z</time>
      </trkpt>
      <trkpt lat="48.10108" lon="6.82027">
        <ele>864.2</ele>
        <time>2015-12-03T09:25:50Z</time>
      </trkpt>
      <trkpt lat="48.10116" lon="6.82023">
        <ele>862.9</ele>
        <time>2015-12-03T09:26:18Z</time>
      </trkpt>
      <trkpt lat="48.10122" lon="6.82015">
        <ele>861.6</ele>
        <time>2015-12-03T09:26:30Z</time>
      </trkpt>
      <trkpt lat="48.10132" lon="6.82012">
        <ele>860.4</ele>
        <time>2015-12-03T09:26:35Z</time>
      </trkpt>
      <trkpt lat="48.10138" lon="6.82002">
        <ele>859.1</ele>
        <time>2015-12-03T09:26:41Z</time>
      </trkpt>
      <trkpt lat="48.10146" lon="6.81995">
        <ele>858</ele>
        <time>2015-12-03T09:26:49Z</time>
      </trkpt>
      <trkpt lat="48.10151" lon="6.81986">
        <ele>856.9</ele>
        <time>2015-12-03T09:26:55Z</time>
      </trkpt>
      <trkpt lat="48.1016" lon="6.81982">
        <ele>855.8</ele>
        <time>2015-12-03T09:27:01Z</time>
      </trkpt>
      <trkpt lat="48.10169" lon="6.8198">
        <ele>854.7</ele>
        <time>2015-12-03T09:27:11Z</time>
      </trkpt>
      <trkpt lat="48.10174" lon="6.81971">
        <ele>854.9</ele>
        <time>2015-12-03T09:27:19Z</time>
      </trkpt>
      <trkpt lat="48.10182" lon="6.81967">
        <ele>855.1</ele>
        <time>2015-12-03T09:27:25Z</time>
      </trkpt>
      <trkpt lat="48.10191" lon="6.81965">
        <ele>855.3</ele>
        <time>2015-12-03T09:27:31Z</time>
      </trkpt>
      <trkpt lat="48.10199" lon="6.81961">
        <ele>855.5</ele>
        <time>2015-12-03T09:27:37Z</time>
      </trkpt>
      <trkpt lat="48.10208" lon="6.81958">
        <ele>855.6</ele>
        <time>2015-12-03T09:27:46Z</time>
      </trkpt>
      <trkpt lat="48.10217" lon="6.81957">
        <ele>855.8</ele>
        <time>2015-12-03T09:27:57Z</time>
      </trkpt>
      <trkpt lat="48.10225" lon="6.81956">
        <ele>856</ele>
        <time>2015-12-03T09:28:07Z</time>
      </trkpt>
      <trkpt lat="48.10235" lon="6.81958">
        <ele>856</ele>
        <time>2015-12-03T09:28:14Z</time>
      </trkpt>
      <trkpt lat="48.10243" lon="6.8196">
        <ele>856</ele>
        <time>2015-12-03T09:28:17Z</time>
      </trkpt>
      <trkpt lat="48.10252" lon="6.8196">
        <ele>855.2</ele>
        <time>2015-12-03T09:28:24Z</time>
      </trkpt>
      <trkpt lat="48.10261" lon="6.81961">
        <ele>854.7</ele>
        <time>2015-12-03T09:28:31Z</time>
      </trkpt>
      <trkpt lat="48.10269" lon="6.81957">
        <ele>854.3</ele>
        <time>2015-12-03T09:28:38Z</time>
      </trkpt>
      <trkpt lat="48.10278" lon="6.81959">
        <ele>853.8</ele>
        <time>2015-12-03T09:28:44Z</time>
      </trkpt>
      <trkpt lat="48.10285" lon="6.81965">
        <ele>853.4</ele>
        <time>2015-12-03T09:29:46Z</time>
      </trkpt>
      <trkpt lat="48.10292" lon="6.81972">
        <ele>852.9</ele>
        <time>2015-12-03T09:29:51Z</time>
      </trkpt>
      <trkpt lat="48.10301" lon="6.81977">
        <ele>852.5</ele>
        <time>2015-12-03T09:29:56Z</time>
      </trkpt>
      <trkpt lat="48.10307" lon="6.81985">
        <ele>852</ele>
        <time>2015-12-03T09:30:00Z</time>
      </trkpt>
      <trkpt lat="48.10316" lon="6.81986">
        <ele>851.5</ele>
        <time>2015-12-03T09:30:06Z</time>
      </trkpt>
      <trkpt lat="48.10325" lon="6.81988">
        <ele>851.1</ele>
        <time>2015-12-03T09:30:14Z</time>
      </trkpt>
      <trkpt lat="48.10333" lon="6.81993">
        <ele>850.6</ele>
        <time>2015-12-03T09:30:19Z</time>
      </trkpt>
      <trkpt lat="48.10341" lon="6.81993">
        <ele>850.9</ele>
        <time>2015-12-03T09:30:27Z</time>
      </trkpt>
      <trkpt lat="48.10349" lon="6.81999">
        <ele>850.8</ele>
        <time>2015-12-03T09:30:36Z</time>
      </trkpt>
      <trkpt lat="48.10357" lon="6.82001">
        <ele>850.7</ele>
        <time>2015-12-03T09:30:45Z</time>
      </trkpt>
      <trkpt lat="48.10365" lon="6.82006">
        <ele>850.6</ele>
        <time>2015-12-03T09:30:55Z</time>
      </trkpt>
      <trkpt lat="48.10372" lon="6.82015">
        <ele>850.5</ele>
        <time>2015-12-03T09:31:03Z</time>
      </trkpt>
      <trkpt lat="48.10378" lon="6.82023">
        <ele>850.5</ele>
        <time>2015-12-03T09:31:15Z</time>
      </trkpt>
      <trkpt lat="48.10386" lon="6.82029">
        <ele>850.4</ele>
        <time>2015-12-03T09:31:22Z</time>
      </trkpt>
      <trkpt lat="48.10394" lon="6.82031">
        <ele>850.3</ele>
        <time>2015-12-03T09:31:27Z</time>
      </trkpt>
      <trkpt lat="48.10403" lon="6.82035">
        <ele>850.2</ele>
        <time>2015-12-03T09:31:33Z</time>
      </trkpt>
      <trkpt lat="48.10412" lon="6.82032">
        <ele>850.1</ele>
        <time>2015-12-03T09:31:40Z</time>
      </trkpt>
      <trkpt lat="48.10419" lon="6.82037">
        <ele>850</ele>
        <time>2015-12-03T09:31:47Z</time>
      </trkpt>
      <trkpt lat="48.10428" lon="6.82035">
        <ele>849.9</ele>
        <time>2015-12-03T09:31:54Z</time>
      </trkpt>
      <trkpt lat="48.10437" lon="6.82033">
        <ele>849.8</ele>
        <time>2015-12-03T09:32:00Z</time>
      </trkpt>
      <trkpt lat="48.10445" lon="6.82036">
        <ele>849.7</ele>
        <time>2015-12-03T09:32:06Z</time>
      </trkpt>
      <trkpt lat="48.10453" lon="6.82035">
        <ele>849.6</ele>
        <time>2015-12-03T09:32:14Z</time>
      </trkpt>
      <trkpt lat="48.10462" lon="6.82036">
        <ele>849.5</ele>
        <time>2015-12-03T09:32:21Z</time>
      </trkpt>
      <trkpt lat="48.1047" lon="6.82035">
        <ele>849.5</ele>
        <time>2015-12-03T09:32:28Z</time>
      </trkpt>
      <trkpt lat="48.10479" lon="6.82035">
        <ele>849.4</ele>
        <time>2015-12-03T09:32:35Z</time>
      </trkpt>
      <trkpt lat="48.10488" lon="6.82034">
        <ele>849.3</ele>
        <time>2015-12-03T09:32:42Z</time>
      </trkpt>
      <trkpt lat="48.10497" lon="6.82035">
        <ele>847.1</ele>
        <time>2015-12-03T09:32:49Z</time>
      </trkpt>
      <trkpt lat="48.10507" lon="6.82037">
        <ele>844.3</ele>
        <time>2015-12-03T09:32:54Z</time>
      </trkpt>
      <trkpt lat="48.10515" lon="6.82043">
        <ele>841.5</ele>
        <time>2015-12-03T09:33:02Z</time>
      </trkpt>
      <trkpt lat="48.10523" lon="6.82045">
        <ele>838.7</ele>
        <time>2015-12-03T09:33:09Z</time>
      </trkpt>
      <trkpt lat="48.10531" lon="6.82049">
        <ele>836</ele>
        <time>2015-12-03T09:33:17Z</time>
      </trkpt>
      <trkpt lat="48.10538" lon="6.82056">
        <ele>833.3</ele>
        <time>2015-12-03T09:33:25Z</time>
      </trkpt>
      <trkpt lat="48.10546" lon="6.82058">
        <ele>832.7</ele>
        <time>2015-12-03T09:33:31Z</time>
      </trkpt>
      <trkpt lat="48.10555" lon="6.82059">
        <ele>832.2</ele>
        <time>2015-12-03T09:33:39Z</time>
      </trkpt>
      <trkpt lat="48.10563" lon="6.82055">
        <ele>831.6</ele>
        <time>2015-12-03T09:33:45Z</time>
      </trkpt>
      <trkpt lat="48.10572" lon="6.82052">
        <ele>831.1</ele>
        <time>2015-12-03T09:33:55Z</time>
      </trkpt>
      <trkpt lat="48.10581" lon="6.82052">
        <ele>830.5</ele>
        <time>2015-12-03T09:34:01Z</time>
      </trkpt>
      <trkpt lat="48.10589" lon="6.82048">
        <ele>830.3</ele>
        <time>2015-12-03T09:34:08Z</time>
      </trkpt>
      <trkpt lat="48.10598" lon="6.82048">
        <ele>830.6</ele>
        <time>2015-12-03T09:34:12Z</time>
      </trkpt>
      <trkpt lat="48.10607" lon="6.82048">
        <ele>831</ele>
        <time>2015-12-03T09:34:21Z</time>
      </trkpt>
      <trkpt lat="48.10615" lon="6.82042">
        <ele>831.4</ele>
        <time>2015-12-03T09:34:29Z</time>
      </trkpt>
      <trkpt lat="48.10623" lon="6.82046">
        <ele>831.7</ele>
        <time>2015-12-03T09:34:37Z</time>
      </trkpt>
      <trkpt lat="48.10631" lon="6.82038">
        <ele>832.1</ele>
        <time>2015-12-03T09:34:43Z</time>
      </trkpt>
      <trkpt lat="48.10637" lon="6.82028">
        <ele>830.3</ele>
        <time>2015-12-03T09:34:49Z</time>
      </trkpt>
      <trkpt lat="48.10643" lon="6.82018">
        <ele>828.5</ele>
        <time>2015-12-03T09:35:01Z</time>
      </trkpt>
      <trkpt lat="48.10651" lon="6.82016">
        <ele>826.6</ele>
        <time>2015-12-03T09:35:09Z</time>
      </trkpt>
      <trkpt lat="48.10658" lon="6.82008">
        <ele>824.8</ele>
        <time>2015-12-03T09:35:14Z</time>
      </trkpt>
      <trkpt lat="48.1066" lon="6.81996">
        <ele>825.2</ele>
        <time>2015-12-03T09:35:20Z</time>
      </trkpt>
      <trkpt lat="48.10665" lon="6.81986">
        <ele>827.4</ele>
        <time>2015-12-03T09:35:27Z</time>
      </trkpt>
      <trkpt lat="48.10673" lon="6.8198">
        <ele>829.5</ele>
        <time>2015-12-03T09:35:34Z</time>
      </trkpt>
      <trkpt lat="48.1068" lon="6.81975">
        <ele>829.5</ele>
        <time>2015-12-03T09:35:40Z</time>
      </trkpt>
      <trkpt lat="48.10689" lon="6.8197">
        <ele>829.5</ele>
        <time>2015-12-03T09:35:47Z</time>
      </trkpt>
      <trkpt lat="48.10693" lon="6.81959">
        <ele>829.5</ele>
        <time>2015-12-03T09:35:55Z</time>
      </trkpt>
      <trkpt lat="48.10699" lon="6.8195">
        <ele>829.5</ele>
        <time>2015-12-03T09:36:03Z</time>
      </trkpt>
      <trkpt lat="48.10707" lon="6.81943">
        <ele>829.5</ele>
        <time>2015-12-03T09:36:11Z</time>
      </trkpt>
      <trkpt lat="48.10715" lon="6.81938">
        <ele>829.5</ele>
        <time>2015-12-03T09:36:18Z</time>
      </trkpt>
      <trkpt lat="48.1072" lon="6.81928">
        <ele>829.5</ele>
        <time>2015-12-03T09:36:26Z</time>
      </trkpt>
      <trkpt lat="48.10727" lon="6.81921">
        <ele>829.5</ele>
        <time>2015-12-03T09:36:35Z</time>
      </trkpt>
      <trkpt lat="48.10735" lon="6.81916">
        <ele>827.4</ele>
        <time>2015-12-03T09:36:40Z</time>
      </trkpt>
      <trkpt lat="48.10744" lon="6.81917">
        <ele>825.2</ele>
        <time>2015-12-03T09:36:49Z</time>
      </trkpt>
      <trkpt lat="48.10751" lon="6.81911">
        <ele>821.6</ele>
        <time>2015-12-03T09:37:30Z</time>
      </trkpt>
      <trkpt lat="48.1076" lon="6.81908">
        <ele>820.3</ele>
        <time>2015-12-03T09:37:39Z</time>
      </trkpt>
      <trkpt lat="48.10767" lon="6.81902">
        <ele>820.2</ele>
        <time>2015-12-03T09:37:48Z</time>
      </trkpt>
      <trkpt lat="48.10777" lon="6.819">
        <ele>820.1</ele>
        <time>2015-12-03T09:37:56Z</time>
      </trkpt>
      <trkpt lat="48.10785" lon="6.81897">
        <ele>820</ele>
        <time>2015-12-03T09:38:02Z</time>
      </trkpt>
      <trkpt lat="48.10793" lon="6.81894">
        <ele>819.9</ele>
        <time>2015-12-03T09:38:11Z</time>
      </trkpt>
      <trkpt lat="48.10801" lon="6.81887">
        <ele>819.8</ele>
        <time>2015-12-03T09:38:17Z</time>
      </trkpt>
      <trkpt lat="48.10809" lon="6.81883">
        <ele>819.7</ele>
        <time>2015-12-03T09:38:22Z</time>
      </trkpt>
      <trkpt lat="48.10818" lon="6.81882">
        <ele>819.6</ele>
        <time>2015-12-03T09:38:29Z</time>
      </trkpt>
      <trkpt lat="48.10827" lon="6.81879">
        <ele>819.5</ele>
        <time>2015-12-03T09:38:35Z</time>
      </trkpt>
      <trkpt lat="48.10835" lon="6.81884">
        <ele>818.6</ele>
        <time>2015-12-03T09:38:46Z</time>
      </trkpt>
      <trkpt lat="48.10843" lon="6.81879">
        <ele>819.1</ele>
        <time>2015-12-03T09:38:53Z</time>
      </trkpt>
      <trkpt lat="48.10851" lon="6.81878">
        <ele>819.5</ele>
        <time>2015-12-03T09:39:03Z</time>
      </trkpt>
      <trkpt lat="48.10859" lon="6.81876">
        <ele>818.7</ele>
        <time>2015-12-03T09:39:09Z</time>
      </trkpt>
      <trkpt lat="48.10868" lon="6.81873">
        <ele>817.9</ele>
        <time>2015-12-03T09:39:13Z</time>
      </trkpt>
      <trkpt lat="48.10876" lon="6.81867">
        <ele>817.1</ele>
        <time>2015-12-03T09:39:19Z</time>
      </trkpt>
      <trkpt lat="48.10885" lon="6.81862">
        <ele>816.3</ele>
        <time>2015-12-03T09:39:25Z</time>
      </trkpt>
      <trkpt lat="48.10892" lon="6.81856">
        <ele>815.5</ele>
        <time>2015-12-03T09:39:31Z</time>
      </trkpt>
      <trkpt lat="48.109" lon="6.81854">
        <ele>814.6</ele>
        <time>2015-12-03T09:39:35Z</time>
      </trkpt>
      <trkpt lat="48.1091" lon="6.81852">
        <ele>813.8</ele>
        <time>2015-12-03T09:39:41Z</time>
      </trkpt>
      <trkpt lat="48.10919" lon="6.8185">
        <ele>813</ele>
        <time>2015-12-03T09:39:47Z</time>
      </trkpt>
      <trkpt lat="48.10928" lon="6.8185">
        <ele>812.1</ele>
        <time>2015-12-03T09:39:56Z</time>
      </trkpt>
      <trkpt lat="48.10937" lon="6.81847">
        <ele>811.2</ele>
        <time>2015-12-03T09:40:03Z</time>
      </trkpt>
      <trkpt lat="48.10943" lon="6.81838">
        <ele>810.3</ele>
        <time>2015-12-03T09:40:12Z</time>
      </trkpt>
      <trkpt lat="48.10951" lon="6.81846">
        <ele>809.4</ele>
        <time>2015-12-03T09:40:26Z</time>
      </trkpt>
      <trkpt lat="48.10959" lon="6.81849">
        <ele>808.5</ele>
        <time>2015-12-03T09:40:32Z</time>
      </trkpt>
      <trkpt lat="48.10968" lon="6.81852">
        <ele>807.5</ele>
        <time>2015-12-03T09:40:38Z</time>
      </trkpt>
      <trkpt lat="48.10976" lon="6.81853">
        <ele>806.6</ele>
        <time>2015-12-03T09:40:44Z</time>
      </trkpt>
      <trkpt lat="48.10985" lon="6.81854">
        <ele>805.7</ele>
        <time>2015-12-03T09:40:52Z</time>
      </trkpt>
      <trkpt lat="48.10993" lon="6.81856">
        <ele>804.8</ele>
        <time>2015-12-03T09:41:00Z</time>
      </trkpt>
      <trkpt lat="48.11002" lon="6.81855">
        <ele>803.9</ele>
        <time>2015-12-03T09:41:06Z</time>
      </trkpt>
      <trkpt lat="48.11011" lon="6.81853">
        <ele>803</ele>
        <time>2015-12-03T09:41:12Z</time>
      </trkpt>
      <trkpt lat="48.11019" lon="6.81851">
        <ele>803</ele>
        <time>2015-12-03T09:41:18Z</time>
      </trkpt>
      <trkpt lat="48.11025" lon="6.81862">
        <ele>803</ele>
        <time>2015-12-03T09:42:36Z</time>
      </trkpt>
      <trkpt lat="48.11028" lon="6.81874">
        <ele>803</ele>
        <time>2015-12-03T09:42:44Z</time>
      </trkpt>
      <trkpt lat="48.11024" lon="6.81862">
        <ele>803</ele>
        <time>2015-12-03T09:43:16Z</time>
      </trkpt>
      <trkpt lat="48.11023" lon="6.81849">
        <ele>804</ele>
        <time>2015-12-03T09:43:43Z</time>
      </trkpt>
      <trkpt lat="48.11026" lon="6.81838">
        <ele>804.1</ele>
        <time>2015-12-03T09:43:59Z</time>
      </trkpt>
      <trkpt lat="48.11031" lon="6.81826">
        <ele>804.2</ele>
        <time>2015-12-03T09:44:37Z</time>
      </trkpt>
      <trkpt lat="48.11034" lon="6.81814">
        <ele>804.3</ele>
        <time>2015-12-03T09:44:44Z</time>
      </trkpt>
      <trkpt lat="48.1104" lon="6.81804">
        <ele>804.4</ele>
        <time>2015-12-03T09:44:50Z</time>
      </trkpt>
      <trkpt lat="48.11045" lon="6.81794">
        <ele>804.5</ele>
        <time>2015-12-03T09:45:01Z</time>
      </trkpt>
      <trkpt lat="48.1105" lon="6.81783">
        <ele>804.5</ele>
        <time>2015-12-03T09:45:09Z</time>
      </trkpt>
      <trkpt lat="48.11057" lon="6.81777">
        <ele>804.6</ele>
        <time>2015-12-03T09:45:20Z</time>
      </trkpt>
      <trkpt lat="48.11065" lon="6.81775">
        <ele>804.7</ele>
        <time>2015-12-03T09:45:28Z</time>
      </trkpt>
      <trkpt lat="48.11072" lon="6.81768">
        <ele>804.8</ele>
        <time>2015-12-03T09:45:37Z</time>
      </trkpt>
      <trkpt lat="48.11078" lon="6.81758">
        <ele>805.6</ele>
        <time>2015-12-03T09:45:45Z</time>
      </trkpt>
      <trkpt lat="48.11084" lon="6.81751">
        <ele>805.5</ele>
        <time>2015-12-03T09:45:53Z</time>
      </trkpt>
      <trkpt lat="48.11089" lon="6.8174">
        <ele>806.2</ele>
        <time>2015-12-03T09:46:03Z</time>
      </trkpt>
      <trkpt lat="48.11096" lon="6.81731">
        <ele>806.3</ele>
        <time>2015-12-03T09:46:10Z</time>
      </trkpt>
      <trkpt lat="48.11102" lon="6.81722">
        <ele>806.4</ele>
        <time>2015-12-03T09:46:19Z</time>
      </trkpt>
      <trkpt lat="48.11109" lon="6.81716">
        <ele>806.5</ele>
        <time>2015-12-03T09:46:25Z</time>
      </trkpt>
      <trkpt lat="48.11117" lon="6.81711">
        <ele>806.5</ele>
        <time>2015-12-03T09:46:32Z</time>
      </trkpt>
      <trkpt lat="48.11126" lon="6.81706">
        <ele>806.6</ele>
        <time>2015-12-03T09:46:40Z</time>
      </trkpt>
      <trkpt lat="48.11134" lon="6.81699">
        <ele>806.7</ele>
        <time>2015-12-03T09:46:45Z</time>
      </trkpt>
      <trkpt lat="48.11143" lon="6.81696">
        <ele>806.8</ele>
        <time>2015-12-03T09:46:52Z</time>
      </trkpt>
      <trkpt lat="48.1115" lon="6.81689">
        <ele>806.9</ele>
        <time>2015-12-03T09:47:00Z</time>
      </trkpt>
      <trkpt lat="48.11157" lon="6.81682">
        <ele>806.3</ele>
        <time>2015-12-03T09:47:06Z</time>
      </trkpt>
      <trkpt lat="48.11164" lon="6.81672">
        <ele>805.6</ele>
        <time>2015-12-03T09:47:13Z</time>
      </trkpt>
      <trkpt lat="48.11171" lon="6.8167">
        <ele>804.4</ele>
        <time>2015-12-03T09:47:21Z</time>
      </trkpt>
      <trkpt lat="48.11181" lon="6.81666">
        <ele>803.7</ele>
        <time>2015-12-03T09:47:31Z</time>
      </trkpt>
      <trkpt lat="48.11189" lon="6.81659">
        <ele>803.1</ele>
        <time>2015-12-03T09:47:37Z</time>
      </trkpt>
      <trkpt lat="48.11197" lon="6.81652">
        <ele>802.5</ele>
        <time>2015-12-03T09:47:45Z</time>
      </trkpt>
      <trkpt lat="48.11206" lon="6.81652">
        <ele>801.8</ele>
        <time>2015-12-03T09:47:53Z</time>
      </trkpt>
      <trkpt lat="48.11215" lon="6.81652">
        <ele>801.2</ele>
        <time>2015-12-03T09:48:00Z</time>
      </trkpt>
      <trkpt lat="48.11222" lon="6.81647">
        <ele>800.5</ele>
        <time>2015-12-03T09:48:07Z</time>
      </trkpt>
      <trkpt lat="48.11229" lon="6.8164">
        <ele>800.5</ele>
        <time>2015-12-03T09:48:17Z</time>
      </trkpt>
      <trkpt lat="48.11238" lon="6.81637">
        <ele>800.4</ele>
        <time>2015-12-03T09:48:24Z</time>
      </trkpt>
      <trkpt lat="48.11247" lon="6.81633">
        <ele>800.3</ele>
        <time>2015-12-03T09:48:30Z</time>
      </trkpt>
      <trkpt lat="48.11256" lon="6.81632">
        <ele>799.8</ele>
        <time>2015-12-03T09:48:37Z</time>
      </trkpt>
      <trkpt lat="48.11265" lon="6.8163">
        <ele>800</ele>
        <time>2015-12-03T09:48:43Z</time>
      </trkpt>
      <trkpt lat="48.11273" lon="6.81624">
        <ele>800.2</ele>
        <time>2015-12-03T09:48:49Z</time>
      </trkpt>
      <trkpt lat="48.11281" lon="6.81622">
        <ele>800.4</ele>
        <time>2015-12-03T09:48:55Z</time>
      </trkpt>
      <trkpt lat="48.11289" lon="6.81619">
        <ele>800.5</ele>
        <time>2015-12-03T09:49:02Z</time>
      </trkpt>
      <trkpt lat="48.11298" lon="6.81618">
        <ele>800.7</ele>
        <time>2015-12-03T09:49:10Z</time>
      </trkpt>
      <trkpt lat="48.11305" lon="6.81611">
        <ele>800.9</ele>
        <time>2015-12-03T09:49:22Z</time>
      </trkpt>
      <trkpt lat="48.11311" lon="6.81602">
        <ele>801.1</ele>
        <time>2015-12-03T09:49:28Z</time>
      </trkpt>
      <trkpt lat="48.11317" lon="6.81593">
        <ele>800.7</ele>
        <time>2015-12-03T09:49:33Z</time>
      </trkpt>
      <trkpt lat="48.11319" lon="6.81579">
        <ele>800.9</ele>
        <time>2015-12-03T09:49:38Z</time>
      </trkpt>
      <trkpt lat="48.11315" lon="6.81568">
        <ele>801.1</ele>
        <time>2015-12-03T09:49:45Z</time>
      </trkpt>
      <trkpt lat="48.1131" lon="6.81558">
        <ele>801.6</ele>
        <time>2015-12-03T09:50:00Z</time>
      </trkpt>
      <trkpt lat="48.11302" lon="6.81553">
        <ele>802.2</ele>
        <time>2015-12-03T09:50:11Z</time>
      </trkpt>
      <trkpt lat="48.11296" lon="6.81544">
        <ele>802.7</ele>
        <time>2015-12-03T09:50:22Z</time>
      </trkpt>
      <trkpt lat="48.11288" lon="6.8154">
        <ele>803.3</ele>
        <time>2015-12-03T09:50:31Z</time>
      </trkpt>
      <trkpt lat="48.1128" lon="6.81534">
        <ele>803.8</ele>
        <time>2015-12-03T09:50:37Z</time>
      </trkpt>
      <trkpt lat="48.11272" lon="6.81528">
        <ele>804.4</ele>
        <time>2015-12-03T09:50:43Z</time>
      </trkpt>
      <trkpt lat="48.11263" lon="6.81528">
        <ele>804.9</ele>
        <time>2015-12-03T09:50:49Z</time>
      </trkpt>
      <trkpt lat="48.11256" lon="6.81521">
        <ele>805.5</ele>
        <time>2015-12-03T09:50:56Z</time>
      </trkpt>
      <trkpt lat="48.11248" lon="6.81515">
        <ele>806.5</ele>
        <time>2015-12-03T09:51:04Z</time>
      </trkpt>
      <trkpt lat="48.11241" lon="6.81508">
        <ele>806.9</ele>
        <time>2015-12-03T09:51:13Z</time>
      </trkpt>
      <trkpt lat="48.11234" lon="6.81503">
        <ele>807.4</ele>
        <time>2015-12-03T09:51:21Z</time>
      </trkpt>
      <trkpt lat="48.11225" lon="6.81498">
        <ele>807.8</ele>
        <time>2015-12-03T09:51:28Z</time>
      </trkpt>
      <trkpt lat="48.11218" lon="6.81489">
        <ele>808.3</ele>
        <time>2015-12-03T09:51:35Z</time>
      </trkpt>
      <trkpt lat="48.1121" lon="6.81481">
        <ele>808.7</ele>
        <time>2015-12-03T09:51:41Z</time>
      </trkpt>
      <trkpt lat="48.11202" lon="6.81477">
        <ele>809.2</ele>
        <time>2015-12-03T09:51:48Z</time>
      </trkpt>
      <trkpt lat="48.11194" lon="6.81472">
        <ele>809.6</ele>
        <time>2015-12-03T09:51:56Z</time>
      </trkpt>
      <trkpt lat="48.11187" lon="6.81467">
        <ele>810.1</ele>
        <time>2015-12-03T09:52:01Z</time>
      </trkpt>
      <trkpt lat="48.11179" lon="6.81463">
        <ele>810.7</ele>
        <time>2015-12-03T09:52:08Z</time>
      </trkpt>
      <trkpt lat="48.11169" lon="6.81461">
        <ele>811.4</ele>
        <time>2015-12-03T09:52:20Z</time>
      </trkpt>
      <trkpt lat="48.11161" lon="6.81465">
        <ele>811.5</ele>
        <time>2015-12-03T09:52:27Z</time>
      </trkpt>
      <trkpt lat="48.11153" lon="6.81468">
        <ele>811.7</ele>
        <time>2015-12-03T09:52:35Z</time>
      </trkpt>
      <trkpt lat="48.11144" lon="6.81462">
        <ele>811.9</ele>
        <time>2015-12-03T09:52:47Z</time>
      </trkpt>
      <trkpt lat="48.11137" lon="6.81457">
        <ele>812.1</ele>
        <time>2015-12-03T09:52:51Z</time>
      </trkpt>
      <trkpt lat="48.11129" lon="6.81455">
        <ele>812.3</ele>
        <time>2015-12-03T09:52:55Z</time>
      </trkpt>
      <trkpt lat="48.11121" lon="6.81453">
        <ele>812.5</ele>
        <time>2015-12-03T09:53:03Z</time>
      </trkpt>
      <trkpt lat="48.11112" lon="6.81449">
        <ele>812.6</ele>
        <time>2015-12-03T09:53:14Z</time>
      </trkpt>
      <trkpt lat="48.11104" lon="6.81443">
        <ele>812.8</ele>
        <time>2015-12-03T09:53:19Z</time>
      </trkpt>
      <trkpt lat="48.11096" lon="6.81439">
        <ele>813</ele>
        <time>2015-12-03T09:53:27Z</time>
      </trkpt>
      <trkpt lat="48.11088" lon="6.81431">
        <ele>813</ele>
        <time>2015-12-03T09:53:36Z</time>
      </trkpt>
      <trkpt lat="48.11079" lon="6.81425">
        <ele>812.9</ele>
        <time>2015-12-03T09:53:41Z</time>
      </trkpt>
      <trkpt lat="48.11071" lon="6.81418">
        <ele>812.8</ele>
        <time>2015-12-03T09:53:48Z</time>
      </trkpt>
      <trkpt lat="48.11063" lon="6.81413">
        <ele>812.7</ele>
        <time>2015-12-03T09:53:54Z</time>
      </trkpt>
      <trkpt lat="48.11055" lon="6.81407">
        <ele>812.2</ele>
        <time>2015-12-03T09:54:01Z</time>
      </trkpt>
      <trkpt lat="48.11047" lon="6.81402">
        <ele>811.6</ele>
        <time>2015-12-03T09:54:07Z</time>
      </trkpt>
      <trkpt lat="48.1104" lon="6.81396">
        <ele>811.1</ele>
        <time>2015-12-03T09:54:11Z</time>
      </trkpt>
      <trkpt lat="48.11032" lon="6.8139">
        <ele>810.5</ele>
        <time>2015-12-03T09:54:19Z</time>
      </trkpt>
      <trkpt lat="48.11025" lon="6.81381">
        <ele>810</ele>
        <time>2015-12-03T09:54:25Z</time>
      </trkpt>
      <trkpt lat="48.11017" lon="6.81374">
        <ele>809.5</ele>
        <time>2015-12-03T09:54:32Z</time>
      </trkpt>
      <trkpt lat="48.11011" lon="6.81366">
        <ele>808.9</ele>
        <time>2015-12-03T09:54:46Z</time>
      </trkpt>
      <trkpt lat="48.11004" lon="6.81357">
        <ele>808.4</ele>
        <time>2015-12-03T09:54:52Z</time>
      </trkpt>
      <trkpt lat="48.10998" lon="6.81347">
        <ele>808.2</ele>
        <time>2015-12-03T09:54:59Z</time>
      </trkpt>
      <trkpt lat="48.1099" lon="6.81341">
        <ele>808</ele>
        <time>2015-12-03T09:55:03Z</time>
      </trkpt>
      <trkpt lat="48.10982" lon="6.81337">
        <ele>807.8</ele>
        <time>2015-12-03T09:55:08Z</time>
      </trkpt>
      <trkpt lat="48.10974" lon="6.81331">
        <ele>807.7</ele>
        <time>2015-12-03T09:55:16Z</time>
      </trkpt>
      <trkpt lat="48.10967" lon="6.81326">
        <ele>807.6</ele>
        <time>2015-12-03T09:55:23Z</time>
      </trkpt>
      <trkpt lat="48.10962" lon="6.81316">
        <ele>807.5</ele>
        <time>2015-12-03T09:55:29Z</time>
      </trkpt>
      <trkpt lat="48.10955" lon="6.81307">
        <ele>807.5</ele>
        <time>2015-12-03T09:55:35Z</time>
      </trkpt>
      <trkpt lat="48.10949" lon="6.813">
        <ele>807.4</ele>
        <time>2015-12-03T09:55:39Z</time>
      </trkpt>
      <trkpt lat="48.10942" lon="6.81294">
        <ele>807.3</ele>
        <time>2015-12-03T09:55:44Z</time>
      </trkpt>
      <trkpt lat="48.10934" lon="6.81288">
        <ele>807.2</ele>
        <time>2015-12-03T09:55:50Z</time>
      </trkpt>
      <trkpt lat="48.10927" lon="6.8128">
        <ele>807.1</ele>
        <time>2015-12-03T09:55:58Z</time>
      </trkpt>
      <trkpt lat="48.1092" lon="6.81273">
        <ele>806.7</ele>
        <time>2015-12-03T09:56:04Z</time>
      </trkpt>
      <trkpt lat="48.10912" lon="6.81266">
        <ele>806.4</ele>
        <time>2015-12-03T09:56:10Z</time>
      </trkpt>
      <trkpt lat="48.10904" lon="6.81262">
        <ele>806.6</ele>
        <time>2015-12-03T09:56:16Z</time>
      </trkpt>
      <trkpt lat="48.10896" lon="6.81257">
        <ele>806.9</ele>
        <time>2015-12-03T09:56:21Z</time>
      </trkpt>
      <trkpt lat="48.1089" lon="6.81248">
        <ele>807.2</ele>
        <time>2015-12-03T09:56:27Z</time>
      </trkpt>
      <trkpt lat="48.10883" lon="6.81237">
        <ele>807.5</ele>
        <time>2015-12-03T09:56:32Z</time>
      </trkpt>
      <trkpt lat="48.10876" lon="6.81228">
        <ele>807.7</ele>
        <time>2015-12-03T09:56:38Z</time>
      </trkpt>
      <trkpt lat="48.1087" lon="6.81219">
        <ele>808</ele>
        <time>2015-12-03T09:56:45Z</time>
      </trkpt>
      <trkpt lat="48.10862" lon="6.81212">
        <ele>808.3</ele>
        <time>2015-12-03T09:56:52Z</time>
      </trkpt>
      <trkpt lat="48.10859" lon="6.812">
        <ele>808.5</ele>
        <time>2015-12-03T09:56:57Z</time>
      </trkpt>
      <trkpt lat="48.10855" lon="6.81187">
        <ele>808.8</ele>
        <time>2015-12-03T09:57:06Z</time>
      </trkpt>
      <trkpt lat="48.10853" lon="6.81175">
        <ele>809.1</ele>
        <time>2015-12-03T09:57:14Z</time>
      </trkpt>
      <trkpt lat="48.10849" lon="6.81163">
        <ele>808.7</ele>
        <time>2015-12-03T09:57:20Z</time>
      </trkpt>
      <trkpt lat="48.10841" lon="6.81161">
        <ele>807.7</ele>
        <time>2015-12-03T09:57:27Z</time>
      </trkpt>
      <trkpt lat="48.1085" lon="6.81161">
        <ele>807.1</ele>
        <time>2015-12-03T09:58:38Z</time>
      </trkpt>
      <trkpt lat="48.10855" lon="6.81149">
        <ele>806.5</ele>
        <time>2015-12-03T09:58:45Z</time>
      </trkpt>
      <trkpt lat="48.10854" lon="6.81136">
        <ele>805.8</ele>
        <time>2015-12-03T09:58:53Z</time>
      </trkpt>
      <trkpt lat="48.1085" lon="6.81123">
        <ele>805.2</ele>
        <time>2015-12-03T09:59:00Z</time>
      </trkpt>
      <trkpt lat="48.10851" lon="6.8111">
        <ele>804.4</ele>
        <time>2015-12-03T09:59:06Z</time>
      </trkpt>
      <trkpt lat="48.10852" lon="6.81098">
        <ele>803.5</ele>
        <time>2015-12-03T09:59:13Z</time>
      </trkpt>
      <trkpt lat="48.10854" lon="6.81085">
        <ele>802.7</ele>
        <time>2015-12-03T09:59:18Z</time>
      </trkpt>
      <trkpt lat="48.10855" lon="6.81073">
        <ele>801.9</ele>
        <time>2015-12-03T09:59:24Z</time>
      </trkpt>
      <trkpt lat="48.10856" lon="6.8106">
        <ele>801.1</ele>
        <time>2015-12-03T09:59:31Z</time>
      </trkpt>
      <trkpt lat="48.10858" lon="6.81046">
        <ele>800.9</ele>
        <time>2015-12-03T09:59:39Z</time>
      </trkpt>
      <trkpt lat="48.1086" lon="6.81033">
        <ele>800.7</ele>
        <time>2015-12-03T09:59:45Z</time>
      </trkpt>
      <trkpt lat="48.10862" lon="6.8102">
        <ele>800.5</ele>
        <time>2015-12-03T09:59:53Z</time>
      </trkpt>
      <trkpt lat="48.10862" lon="6.81007">
        <ele>800.2</ele>
        <time>2015-12-03T10:00:00Z</time>
      </trkpt>
      <trkpt lat="48.10865" lon="6.80995">
        <ele>799.9</ele>
        <time>2015-12-03T10:00:06Z</time>
      </trkpt>
      <trkpt lat="48.10866" lon="6.80981">
        <ele>799.6</ele>
        <time>2015-12-03T10:00:14Z</time>
      </trkpt>
      <trkpt lat="48.10867" lon="6.80968">
        <ele>799.7</ele>
        <time>2015-12-03T10:00:21Z</time>
      </trkpt>
      <trkpt lat="48.1087" lon="6.80956">
        <ele>799.8</ele>
        <time>2015-12-03T10:00:27Z</time>
      </trkpt>
      <trkpt lat="48.10869" lon="6.80943">
        <ele>799.9</ele>
        <time>2015-12-03T10:00:34Z</time>
      </trkpt>
      <trkpt lat="48.10872" lon="6.80931">
        <ele>800</ele>
        <time>2015-12-03T10:00:41Z</time>
      </trkpt>
      <trkpt lat="48.10874" lon="6.80917">
        <ele>800.1</ele>
        <time>2015-12-03T10:00:48Z</time>
      </trkpt>
      <trkpt lat="48.10876" lon="6.80906">
        <ele>800.2</ele>
        <time>2015-12-03T10:00:54Z</time>
      </trkpt>
      <trkpt lat="48.10878" lon="6.80894">
        <ele>800.3</ele>
        <time>2015-12-03T10:01:00Z</time>
      </trkpt>
      <trkpt lat="48.10878" lon="6.80881">
        <ele>800.5</ele>
        <time>2015-12-03T10:01:07Z</time>
      </trkpt>
      <trkpt lat="48.1088" lon="6.80868">
        <ele>800.6</ele>
        <time>2015-12-03T10:01:14Z</time>
      </trkpt>
      <trkpt lat="48.10881" lon="6.80854">
        <ele>800.7</ele>
        <time>2015-12-03T10:01:21Z</time>
      </trkpt>
      <trkpt lat="48.10883" lon="6.80841">
        <ele>800.8</ele>
        <time>2015-12-03T10:01:28Z</time>
      </trkpt>
      <trkpt lat="48.10885" lon="6.80829">
        <ele>800.7</ele>
        <time>2015-12-03T10:01:35Z</time>
      </trkpt>
      <trkpt lat="48.10886" lon="6.80817">
        <ele>800.6</ele>
        <time>2015-12-03T10:01:42Z</time>
      </trkpt>
      <trkpt lat="48.10887" lon="6.80804">
        <ele>800.5</ele>
        <time>2015-12-03T10:01:49Z</time>
      </trkpt>
      <trkpt lat="48.10889" lon="6.80791">
        <ele>800.4</ele>
        <time>2015-12-03T10:01:55Z</time>
      </trkpt>
      <trkpt lat="48.10888" lon="6.80778">
        <ele>800.2</ele>
        <time>2015-12-03T10:02:02Z</time>
      </trkpt>
      <trkpt lat="48.10884" lon="6.80766">
        <ele>799.3</ele>
        <time>2015-12-03T10:02:07Z</time>
      </trkpt>
      <trkpt lat="48.10881" lon="6.80753">
        <ele>798.4</ele>
        <time>2015-12-03T10:02:11Z</time>
      </trkpt>
      <trkpt lat="48.10876" lon="6.80743">
        <ele>797.5</ele>
        <time>2015-12-03T10:02:18Z</time>
      </trkpt>
      <trkpt lat="48.10871" lon="6.80732">
        <ele>796.5</ele>
        <time>2015-12-03T10:02:25Z</time>
      </trkpt>
      <trkpt lat="48.10866" lon="6.80722">
        <ele>795.7</ele>
        <time>2015-12-03T10:02:33Z</time>
      </trkpt>
      <trkpt lat="48.1086" lon="6.80712">
        <ele>794.9</ele>
        <time>2015-12-03T10:02:43Z</time>
      </trkpt>
      <trkpt lat="48.10855" lon="6.80701">
        <ele>794.1</ele>
        <time>2015-12-03T10:02:51Z</time>
      </trkpt>
      <trkpt lat="48.10853" lon="6.80688">
        <ele>793.3</ele>
        <time>2015-12-03T10:02:58Z</time>
      </trkpt>
      <trkpt lat="48.10853" lon="6.80675">
        <ele>791.5</ele>
        <time>2015-12-03T10:03:05Z</time>
      </trkpt>
      <trkpt lat="48.10851" lon="6.80663">
        <ele>789.7</ele>
        <time>2015-12-03T10:03:12Z</time>
      </trkpt>
      <trkpt lat="48.10845" lon="6.80653">
        <ele>788</ele>
        <time>2015-12-03T10:03:20Z</time>
      </trkpt>
      <trkpt lat="48.10841" lon="6.80643">
        <ele>787</ele>
        <time>2015-12-03T10:03:53Z</time>
      </trkpt>
      <trkpt lat="48.10837" lon="6.80631">
        <ele>786</ele>
        <time>2015-12-03T10:04:01Z</time>
      </trkpt>
      <trkpt lat="48.10831" lon="6.80622">
        <ele>784.5</ele>
        <time>2015-12-03T10:04:10Z</time>
      </trkpt>
      <trkpt lat="48.10824" lon="6.80616">
        <ele>783.1</ele>
        <time>2015-12-03T10:04:15Z</time>
      </trkpt>
      <trkpt lat="48.10815" lon="6.80612">
        <ele>781.6</ele>
        <time>2015-12-03T10:04:23Z</time>
      </trkpt>
      <trkpt lat="48.10806" lon="6.80609">
        <ele>780.2</ele>
        <time>2015-12-03T10:04:39Z</time>
      </trkpt>
      <trkpt lat="48.10798" lon="6.8061">
        <ele>778.7</ele>
        <time>2015-12-03T10:04:45Z</time>
      </trkpt>
      <trkpt lat="48.10789" lon="6.80612">
        <ele>777.3</ele>
        <time>2015-12-03T10:05:03Z</time>
      </trkpt>
      <trkpt lat="48.10781" lon="6.80608">
        <ele>776.8</ele>
        <time>2015-12-03T10:05:10Z</time>
      </trkpt>
      <trkpt lat="48.10772" lon="6.80607">
        <ele>776.4</ele>
        <time>2015-12-03T10:05:17Z</time>
      </trkpt>
      <trkpt lat="48.10764" lon="6.80607">
        <ele>775.9</ele>
        <time>2015-12-03T10:05:23Z</time>
      </trkpt>
      <trkpt lat="48.10755" lon="6.80605">
        <ele>775.5</ele>
        <time>2015-12-03T10:05:30Z</time>
      </trkpt>
      <trkpt lat="48.10747" lon="6.80602">
        <ele>774.9</ele>
        <time>2015-12-03T10:05:38Z</time>
      </trkpt>
      <trkpt lat="48.10739" lon="6.80601">
        <ele>774.8</ele>
        <time>2015-12-03T10:05:44Z</time>
      </trkpt>
      <trkpt lat="48.1073" lon="6.80599">
        <ele>774.7</ele>
        <time>2015-12-03T10:05:56Z</time>
      </trkpt>
      <trkpt lat="48.10721" lon="6.80599">
        <ele>774.6</ele>
        <time>2015-12-03T10:06:02Z</time>
      </trkpt>
      <trkpt lat="48.10712" lon="6.80599">
        <ele>774.5</ele>
        <time>2015-12-03T10:06:09Z</time>
      </trkpt>
      <trkpt lat="48.10703" lon="6.80599">
        <ele>774.5</ele>
        <time>2015-12-03T10:06:16Z</time>
      </trkpt>
      <trkpt lat="48.10694" lon="6.80602">
        <ele>774.4</ele>
        <time>2015-12-03T10:06:22Z</time>
      </trkpt>
      <trkpt lat="48.10685" lon="6.80601">
        <ele>774.3</ele>
        <time>2015-12-03T10:06:27Z</time>
      </trkpt>
      <trkpt lat="48.10676" lon="6.806">
        <ele>774.2</ele>
        <time>2015-12-03T10:06:33Z</time>
      </trkpt>
      <trkpt lat="48.10668" lon="6.80602">
        <ele>775.3</ele>
        <time>2015-12-03T10:06:40Z</time>
      </trkpt>
      <trkpt lat="48.10659" lon="6.80603">
        <ele>777</ele>
        <time>2015-12-03T10:06:46Z</time>
      </trkpt>
      <trkpt lat="48.10651" lon="6.80607">
        <ele>778.8</ele>
        <time>2015-12-03T10:06:52Z</time>
      </trkpt>
      <trkpt lat="48.10643" lon="6.80612">
        <ele>780.6</ele>
        <time>2015-12-03T10:06:59Z</time>
      </trkpt>
      <trkpt lat="48.10635" lon="6.80619">
        <ele>782.5</ele>
        <time>2015-12-03T10:07:07Z</time>
      </trkpt>
      <trkpt lat="48.10629" lon="6.80627">
        <ele>784.3</ele>
        <time>2015-12-03T10:07:58Z</time>
      </trkpt>
      <trkpt lat="48.10621" lon="6.80632">
        <ele>786.1</ele>
        <time>2015-12-03T10:08:45Z</time>
      </trkpt>
      <trkpt lat="48.10614" lon="6.80639">
        <ele>787.9</ele>
        <time>2015-12-03T10:08:52Z</time>
      </trkpt>
      <trkpt lat="48.10607" lon="6.80648">
        <ele>789.7</ele>
        <time>2015-12-03T10:08:56Z</time>
      </trkpt>
      <trkpt lat="48.10608" lon="6.8066">
        <ele>791.5</ele>
        <time>2015-12-03T10:09:00Z</time>
      </trkpt>
      <trkpt lat="48.106" lon="6.80657">
        <ele>793.4</ele>
        <time>2015-12-03T10:09:09Z</time>
      </trkpt>
      <trkpt lat="48.10592" lon="6.80663">
        <ele>794</ele>
        <time>2015-12-03T10:09:14Z</time>
      </trkpt>
      <trkpt lat="48.10584" lon="6.80669">
        <ele>794</ele>
        <time>2015-12-03T10:09:18Z</time>
      </trkpt>
      <trkpt lat="48.10576" lon="6.80682">
        <ele>794</ele>
        <time>2015-12-03T10:09:21Z</time>
      </trkpt>
      <trkpt lat="48.10565" lon="6.8069">
        <ele>794</ele>
        <time>2015-12-03T10:09:23Z</time>
      </trkpt>
      <trkpt lat="48.10558" lon="6.80697">
        <ele>794</ele>
        <time>2015-12-03T10:09:26Z</time>
      </trkpt>
      <trkpt lat="48.10554" lon="6.80686">
        <ele>794</ele>
        <time>2015-12-03T10:09:35Z</time>
      </trkpt>
      <trkpt lat="48.10547" lon="6.8068">
        <ele>794</ele>
        <time>2015-12-03T10:09:40Z</time>
      </trkpt>
      <trkpt lat="48.10538" lon="6.80679">
        <ele>794</ele>
        <time>2015-12-03T10:09:48Z</time>
      </trkpt>
      <trkpt lat="48.10532" lon="6.80687">
        <ele>794</ele>
        <time>2015-12-03T10:09:55Z</time>
      </trkpt>
      <trkpt lat="48.10523" lon="6.80682">
        <ele>794</ele>
        <time>2015-12-03T10:10:00Z</time>
      </trkpt>
      <trkpt lat="48.10516" lon="6.80674">
        <ele>794</ele>
        <time>2015-12-03T10:10:03Z</time>
      </trkpt>
      <trkpt lat="48.10512" lon="6.80664">
        <ele>794</ele>
        <time>2015-12-03T10:10:09Z</time>
      </trkpt>
      <trkpt lat="48.10505" lon="6.80655">
        <ele>793.6</ele>
        <time>2015-12-03T10:10:15Z</time>
      </trkpt>
      <trkpt lat="48.10499" lon="6.80646">
        <ele>793.1</ele>
        <time>2015-12-03T10:10:20Z</time>
      </trkpt>
      <trkpt lat="48.10493" lon="6.80639">
        <ele>792.5</ele>
        <time>2015-12-03T10:10:31Z</time>
      </trkpt>
      <trkpt lat="48.10484" lon="6.80632">
        <ele>792</ele>
        <time>2015-12-03T10:10:38Z</time>
      </trkpt>
      <trkpt lat="48.10476" lon="6.8063">
        <ele>791.5</ele>
        <time>2015-12-03T10:10:46Z</time>
      </trkpt>
      <trkpt lat="48.10467" lon="6.80625">
        <ele>790.9</ele>
        <time>2015-12-03T10:10:53Z</time>
      </trkpt>
      <trkpt lat="48.10459" lon="6.8062">
        <ele>790.4</ele>
        <time>2015-12-03T10:10:57Z</time>
      </trkpt>
      <trkpt lat="48.1045" lon="6.80618">
        <ele>789.8</ele>
        <time>2015-12-03T10:11:00Z</time>
      </trkpt>
      <trkpt lat="48.10443" lon="6.80609">
        <ele>789.3</ele>
        <time>2015-12-03T10:11:04Z</time>
      </trkpt>
      <trkpt lat="48.10434" lon="6.80603">
        <ele>788.7</ele>
        <time>2015-12-03T10:11:10Z</time>
      </trkpt>
      <trkpt lat="48.10427" lon="6.80597">
        <ele>788.2</ele>
        <time>2015-12-03T10:11:17Z</time>
      </trkpt>
      <trkpt lat="48.1042" lon="6.80588">
        <ele>787.5</ele>
        <time>2015-12-03T10:11:22Z</time>
      </trkpt>
      <trkpt lat="48.10415" lon="6.80578">
        <ele>786.9</ele>
        <time>2015-12-03T10:11:29Z</time>
      </trkpt>
      <trkpt lat="48.10408" lon="6.80571">
        <ele>786.4</ele>
        <time>2015-12-03T10:11:35Z</time>
      </trkpt>
      <trkpt lat="48.10402" lon="6.80562">
        <ele>785.8</ele>
        <time>2015-12-03T10:11:41Z</time>
      </trkpt>
      <trkpt lat="48.10398" lon="6.8055">
        <ele>785.3</ele>
        <time>2015-12-03T10:11:46Z</time>
      </trkpt>
      <trkpt lat="48.10395" lon="6.80539">
        <ele>784.9</ele>
        <time>2015-12-03T10:11:52Z</time>
      </trkpt>
      <trkpt lat="48.10391" lon="6.80527">
        <ele>784.5</ele>
        <time>2015-12-03T10:11:57Z</time>
      </trkpt>
      <trkpt lat="48.10388" lon="6.80515">
        <ele>784.2</ele>
        <time>2015-12-03T10:12:01Z</time>
      </trkpt>
      <trkpt lat="48.10383" lon="6.80505">
        <ele>783.2</ele>
        <time>2015-12-03T10:12:10Z</time>
      </trkpt>
      <trkpt lat="48.10375" lon="6.80497">
        <ele>782.2</ele>
        <time>2015-12-03T10:12:17Z</time>
      </trkpt>
      <trkpt lat="48.10369" lon="6.80486">
        <ele>781.2</ele>
        <time>2015-12-03T10:12:24Z</time>
      </trkpt>
      <trkpt lat="48.10364" lon="6.80476">
        <ele>780.7</ele>
        <time>2015-12-03T10:12:31Z</time>
      </trkpt>
      <trkpt lat="48.1036" lon="6.80465">
        <ele>780.3</ele>
        <time>2015-12-03T10:12:37Z</time>
      </trkpt>
      <trkpt lat="48.10356" lon="6.80452">
        <ele>779.8</ele>
        <time>2015-12-03T10:12:43Z</time>
      </trkpt>
      <trkpt lat="48.10352" lon="6.80441">
        <ele>779.4</ele>
        <time>2015-12-03T10:12:53Z</time>
      </trkpt>
      <trkpt lat="48.10345" lon="6.80432">
        <ele>778.7</ele>
        <time>2015-12-03T10:13:02Z</time>
      </trkpt>
      <trkpt lat="48.10339" lon="6.80423">
        <ele>777.9</ele>
        <time>2015-12-03T10:13:08Z</time>
      </trkpt>
      <trkpt lat="48.10332" lon="6.80412">
        <ele>777.1</ele>
        <time>2015-12-03T10:13:15Z</time>
      </trkpt>
      <trkpt lat="48.10328" lon="6.804">
        <ele>776.3</ele>
        <time>2015-12-03T10:13:22Z</time>
      </trkpt>
      <trkpt lat="48.10324" lon="6.80388">
        <ele>776.1</ele>
        <time>2015-12-03T10:13:26Z</time>
      </trkpt>
      <trkpt lat="48.10321" lon="6.80375">
        <ele>775.9</ele>
        <time>2015-12-03T10:13:33Z</time>
      </trkpt>
      <trkpt lat="48.1032" lon="6.80362">
        <ele>775.7</ele>
        <time>2015-12-03T10:13:37Z</time>
      </trkpt>
      <trkpt lat="48.10317" lon="6.80349">
        <ele>776.1</ele>
        <time>2015-12-03T10:13:43Z</time>
      </trkpt>
      <trkpt lat="48.10313" lon="6.80337">
        <ele>776.5</ele>
        <time>2015-12-03T10:13:48Z</time>
      </trkpt>
      <trkpt lat="48.1031" lon="6.80325">
        <ele>776.8</ele>
        <time>2015-12-03T10:13:56Z</time>
      </trkpt>
      <trkpt lat="48.10305" lon="6.80314">
        <ele>777.2</ele>
        <time>2015-12-03T10:14:05Z</time>
      </trkpt>
      <trkpt lat="48.10299" lon="6.80306">
        <ele>777.1</ele>
        <time>2015-12-03T10:14:15Z</time>
      </trkpt>
      <trkpt lat="48.1029" lon="6.80308">
        <ele>777</ele>
        <time>2015-12-03T10:14:23Z</time>
      </trkpt>
      <trkpt lat="48.10282" lon="6.80305">
        <ele>776.9</ele>
        <time>2015-12-03T10:14:28Z</time>
      </trkpt>
      <trkpt lat="48.10274" lon="6.80304">
        <ele>776.8</ele>
        <time>2015-12-03T10:14:37Z</time>
      </trkpt>
      <trkpt lat="48.10268" lon="6.80297">
        <ele>776.7</ele>
        <time>2015-12-03T10:14:43Z</time>
      </trkpt>
      <trkpt lat="48.10261" lon="6.8029">
        <ele>776.6</ele>
        <time>2015-12-03T10:14:49Z</time>
      </trkpt>
      <trkpt lat="48.10253" lon="6.80287">
        <ele>776.5</ele>
        <time>2015-12-03T10:14:53Z</time>
      </trkpt>
      <trkpt lat="48.10245" lon="6.80285">
        <ele>776.4</ele>
        <time>2015-12-03T10:14:59Z</time>
      </trkpt>
      <trkpt lat="48.10237" lon="6.80281">
        <ele>776.2</ele>
        <time>2015-12-03T10:15:05Z</time>
      </trkpt>
      <trkpt lat="48.10229" lon="6.80276">
        <ele>776</ele>
        <time>2015-12-03T10:15:13Z</time>
      </trkpt>
      <trkpt lat="48.1022" lon="6.8027">
        <ele>775.8</ele>
        <time>2015-12-03T10:15:21Z</time>
      </trkpt>
      <trkpt lat="48.10212" lon="6.80265">
        <ele>776.3</ele>
        <time>2015-12-03T10:15:27Z</time>
      </trkpt>
      <trkpt lat="48.10204" lon="6.80259">
        <ele>776.7</ele>
        <time>2015-12-03T10:15:33Z</time>
      </trkpt>
      <trkpt lat="48.10196" lon="6.80255">
        <ele>777.2</ele>
        <time>2015-12-03T10:15:40Z</time>
      </trkpt>
      <trkpt lat="48.10187" lon="6.80253">
        <ele>777.6</ele>
        <time>2015-12-03T10:15:47Z</time>
      </trkpt>
      <trkpt lat="48.10178" lon="6.80252">
        <ele>778.1</ele>
        <time>2015-12-03T10:15:53Z</time>
      </trkpt>
      <trkpt lat="48.10168" lon="6.80251">
        <ele>778.8</ele>
        <time>2015-12-03T10:15:58Z</time>
      </trkpt>
      <trkpt lat="48.1016" lon="6.80252">
        <ele>779.5</ele>
        <time>2015-12-03T10:16:04Z</time>
      </trkpt>
      <trkpt lat="48.10152" lon="6.80253">
        <ele>779.8</ele>
        <time>2015-12-03T10:16:11Z</time>
      </trkpt>
      <trkpt lat="48.10143" lon="6.80254">
        <ele>780.1</ele>
        <time>2015-12-03T10:16:19Z</time>
      </trkpt>
      <trkpt lat="48.10135" lon="6.80257">
        <ele>780.4</ele>
        <time>2015-12-03T10:16:26Z</time>
      </trkpt>
      <trkpt lat="48.10126" lon="6.80257">
        <ele>780.6</ele>
        <time>2015-12-03T10:16:33Z</time>
      </trkpt>
      <trkpt lat="48.10118" lon="6.80265">
        <ele>780.9</ele>
        <time>2015-12-03T10:16:38Z</time>
      </trkpt>
      <trkpt lat="48.1011" lon="6.80269">
        <ele>781.2</ele>
        <time>2015-12-03T10:16:45Z</time>
      </trkpt>
      <trkpt lat="48.10102" lon="6.80268">
        <ele>781.5</ele>
        <time>2015-12-03T10:16:51Z</time>
      </trkpt>
      <trkpt lat="48.10093" lon="6.80272">
        <ele>781.7</ele>
        <time>2015-12-03T10:16:57Z</time>
      </trkpt>
      <trkpt lat="48.10083" lon="6.8027">
        <ele>782.8</ele>
        <time>2015-12-03T10:17:04Z</time>
      </trkpt>
      <trkpt lat="48.10074" lon="6.80272">
        <ele>783.6</ele>
        <time>2015-12-03T10:17:10Z</time>
      </trkpt>
      <trkpt lat="48.10066" lon="6.80272">
        <ele>784.5</ele>
        <time>2015-12-03T10:17:16Z</time>
      </trkpt>
      <trkpt lat="48.10057" lon="6.80268">
        <ele>785.3</ele>
        <time>2015-12-03T10:17:22Z</time>
      </trkpt>
      <trkpt lat="48.10049" lon="6.80269">
        <ele>786.1</ele>
        <time>2015-12-03T10:17:30Z</time>
      </trkpt>
      <trkpt lat="48.10037" lon="6.80267">
        <ele>786.9</ele>
        <time>2015-12-03T10:17:40Z</time>
      </trkpt>
      <trkpt lat="48.10028" lon="6.80262">
        <ele>787.7</ele>
        <time>2015-12-03T10:17:50Z</time>
      </trkpt>
      <trkpt lat="48.1002" lon="6.80258">
        <ele>787.6</ele>
        <time>2015-12-03T10:17:55Z</time>
      </trkpt>
      <trkpt lat="48.10014" lon="6.80247">
        <ele>787.5</ele>
        <time>2015-12-03T10:18:03Z</time>
      </trkpt>
      <trkpt lat="48.10008" lon="6.80238">
        <ele>787.5</ele>
        <time>2015-12-03T10:18:10Z</time>
      </trkpt>
      <trkpt lat="48.10003" lon="6.80227">
        <ele>787.4</ele>
        <time>2015-12-03T10:18:18Z</time>
      </trkpt>
      <trkpt lat="48.09998" lon="6.80217">
        <ele>786.5</ele>
        <time>2015-12-03T10:18:24Z</time>
      </trkpt>
      <trkpt lat="48.09994" lon="6.80206">
        <ele>785.5</ele>
        <time>2015-12-03T10:18:31Z</time>
      </trkpt>
      <trkpt lat="48.0999" lon="6.80195">
        <ele>784.6</ele>
        <time>2015-12-03T10:18:38Z</time>
      </trkpt>
      <trkpt lat="48.09987" lon="6.80183">
        <ele>782.9</ele>
        <time>2015-12-03T10:18:42Z</time>
      </trkpt>
      <trkpt lat="48.09985" lon="6.8017">
        <ele>781.2</ele>
        <time>2015-12-03T10:18:49Z</time>
      </trkpt>
      <trkpt lat="48.09981" lon="6.80157">
        <ele>779.5</ele>
        <time>2015-12-03T10:18:55Z</time>
      </trkpt>
      <trkpt lat="48.0998" lon="6.80145">
        <ele>777.7</ele>
        <time>2015-12-03T10:18:59Z</time>
      </trkpt>
      <trkpt lat="48.09979" lon="6.80132">
        <ele>776.9</ele>
        <time>2015-12-03T10:19:09Z</time>
      </trkpt>
      <trkpt lat="48.09979" lon="6.8012">
        <ele>776.1</ele>
        <time>2015-12-03T10:19:18Z</time>
      </trkpt>
      <trkpt lat="48.09978" lon="6.80106">
        <ele>777</ele>
        <time>2015-12-03T10:19:25Z</time>
      </trkpt>
      <trkpt lat="48.09976" lon="6.80093">
        <ele>777.9</ele>
        <time>2015-12-03T10:19:32Z</time>
      </trkpt>
      <trkpt lat="48.09973" lon="6.8008">
        <ele>778.8</ele>
        <time>2015-12-03T10:19:38Z</time>
      </trkpt>
      <trkpt lat="48.09971" lon="6.80067">
        <ele>779.7</ele>
        <time>2015-12-03T10:19:44Z</time>
      </trkpt>
      <trkpt lat="48.09968" lon="6.80053">
        <ele>780.6</ele>
        <time>2015-12-03T10:19:51Z</time>
      </trkpt>
      <trkpt lat="48.09964" lon="6.80042">
        <ele>782.4</ele>
        <time>2015-12-03T10:19:57Z</time>
      </trkpt>
      <trkpt lat="48.09961" lon="6.8003">
        <ele>784.1</ele>
        <time>2015-12-03T10:20:04Z</time>
      </trkpt>
      <trkpt lat="48.09956" lon="6.8002">
        <ele>785.8</ele>
        <time>2015-12-03T10:20:16Z</time>
      </trkpt>
      <trkpt lat="48.09951" lon="6.8001">
        <ele>786.7</ele>
        <time>2015-12-03T10:20:24Z</time>
      </trkpt>
      <trkpt lat="48.09946" lon="6.80001">
        <ele>787.6</ele>
        <time>2015-12-03T10:20:30Z</time>
      </trkpt>
      <trkpt lat="48.0994" lon="6.7999">
        <ele>788.5</ele>
        <time>2015-12-03T10:20:37Z</time>
      </trkpt>
      <trkpt lat="48.09937" lon="6.79979">
        <ele>787.7</ele>
        <time>2015-12-03T10:20:44Z</time>
      </trkpt>
      <trkpt lat="48.0993" lon="6.7997">
        <ele>786.9</ele>
        <time>2015-12-03T10:20:53Z</time>
      </trkpt>
      <trkpt lat="48.09924" lon="6.7996">
        <ele>786.1</ele>
        <time>2015-12-03T10:21:00Z</time>
      </trkpt>
      <trkpt lat="48.09918" lon="6.79952">
        <ele>785.3</ele>
        <time>2015-12-03T10:21:07Z</time>
      </trkpt>
      <trkpt lat="48.0991" lon="6.79945">
        <ele>785.2</ele>
        <time>2015-12-03T10:21:13Z</time>
      </trkpt>
      <trkpt lat="48.09901" lon="6.7994">
        <ele>785.1</ele>
        <time>2015-12-03T10:21:20Z</time>
      </trkpt>
      <trkpt lat="48.09894" lon="6.79932">
        <ele>785</ele>
        <time>2015-12-03T10:21:24Z</time>
      </trkpt>
      <trkpt lat="48.09886" lon="6.79927">
        <ele>784.9</ele>
        <time>2015-12-03T10:21:30Z</time>
      </trkpt>
      <trkpt lat="48.09881" lon="6.79937">
        <ele>785.6</ele>
        <time>2015-12-03T10:21:39Z</time>
      </trkpt>
      <trkpt lat="48.09873" lon="6.79943">
        <ele>786.4</ele>
        <time>2015-12-03T10:21:47Z</time>
      </trkpt>
      <trkpt lat="48.09865" lon="6.79939">
        <ele>787.1</ele>
        <time>2015-12-03T10:21:52Z</time>
      </trkpt>
      <trkpt lat="48.09855" lon="6.7994">
        <ele>787.8</ele>
        <time>2015-12-03T10:21:57Z</time>
      </trkpt>
      <trkpt lat="48.09847" lon="6.79942">
        <ele>788.5</ele>
        <time>2015-12-03T10:22:04Z</time>
      </trkpt>
      <trkpt lat="48.09838" lon="6.7994">
        <ele>789.3</ele>
        <time>2015-12-03T10:22:10Z</time>
      </trkpt>
      <trkpt lat="48.09831" lon="6.79947">
        <ele>790.2</ele>
        <time>2015-12-03T10:22:17Z</time>
      </trkpt>
      <trkpt lat="48.09824" lon="6.79954">
        <ele>790.4</ele>
        <time>2015-12-03T10:22:22Z</time>
      </trkpt>
      <trkpt lat="48.09815" lon="6.79954">
        <ele>790.5</ele>
        <time>2015-12-03T10:22:30Z</time>
      </trkpt>
      <trkpt lat="48.09808" lon="6.79959">
        <ele>790.7</ele>
        <time>2015-12-03T10:22:36Z</time>
      </trkpt>
      <trkpt lat="48.09799" lon="6.79958">
        <ele>790.9</ele>
        <time>2015-12-03T10:22:42Z</time>
      </trkpt>
      <trkpt lat="48.0979" lon="6.7996">
        <ele>791.1</ele>
        <time>2015-12-03T10:22:49Z</time>
      </trkpt>
      <trkpt lat="48.09782" lon="6.79961">
        <ele>791.3</ele>
        <time>2015-12-03T10:22:55Z</time>
      </trkpt>
      <trkpt lat="48.09773" lon="6.79959">
        <ele>791.5</ele>
        <time>2015-12-03T10:23:04Z</time>
      </trkpt>
      <trkpt lat="48.09765" lon="6.79956">
        <ele>791.7</ele>
        <time>2015-12-03T10:23:09Z</time>
      </trkpt>
      <trkpt lat="48.09756" lon="6.79956">
        <ele>792</ele>
        <time>2015-12-03T10:23:14Z</time>
      </trkpt>
      <trkpt lat="48.09748" lon="6.79958">
        <ele>792.3</ele>
        <time>2015-12-03T10:23:20Z</time>
      </trkpt>
      <trkpt lat="48.0974" lon="6.79961">
        <ele>792.4</ele>
        <time>2015-12-03T10:23:27Z</time>
      </trkpt>
      <trkpt lat="48.09732" lon="6.7996">
        <ele>792.5</ele>
        <time>2015-12-03T10:23:33Z</time>
      </trkpt>
      <trkpt lat="48.09725" lon="6.79969">
        <ele>792.5</ele>
        <time>2015-12-03T10:23:41Z</time>
      </trkpt>
      <trkpt lat="48.09721" lon="6.79981">
        <ele>792.6</ele>
        <time>2015-12-03T10:23:50Z</time>
      </trkpt>
      <trkpt lat="48.09718" lon="6.79994">
        <ele>792.6</ele>
        <time>2015-12-03T10:23:58Z</time>
      </trkpt>
      <trkpt lat="48.09717" lon="6.80006">
        <ele>792.6</ele>
        <time>2015-12-03T10:24:14Z</time>
      </trkpt>
      <trkpt lat="48.09719" lon="6.79993">
        <ele>792.6</ele>
        <time>2015-12-03T10:24:39Z</time>
      </trkpt>
      <trkpt lat="48.09719" lon="6.7998">
        <ele>792.6</ele>
        <time>2015-12-03T10:24:45Z</time>
      </trkpt>
      <trkpt lat="48.09722" lon="6.79968">
        <ele>791</ele>
        <time>2015-12-03T10:24:53Z</time>
      </trkpt>
      <trkpt lat="48.09724" lon="6.79956">
        <ele>789.4</ele>
        <time>2015-12-03T10:25:01Z</time>
      </trkpt>
      <trkpt lat="48.09718" lon="6.79945">
        <ele>788.5</ele>
        <time>2015-12-03T10:25:20Z</time>
      </trkpt>
      <trkpt lat="48.09715" lon="6.79932">
        <ele>787.7</ele>
        <time>2015-12-03T10:25:25Z</time>
      </trkpt>
      <trkpt lat="48.09711" lon="6.79921">
        <ele>786.9</ele>
        <time>2015-12-03T10:25:29Z</time>
      </trkpt>
      <trkpt lat="48.09707" lon="6.79908">
        <ele>786.1</ele>
        <time>2015-12-03T10:25:37Z</time>
      </trkpt>
      <trkpt lat="48.09702" lon="6.79897">
        <ele>785.3</ele>
        <time>2015-12-03T10:25:42Z</time>
      </trkpt>
      <trkpt lat="48.09699" lon="6.79883">
        <ele>784.5</ele>
        <time>2015-12-03T10:25:45Z</time>
      </trkpt>
      <trkpt lat="48.09694" lon="6.79871">
        <ele>783.8</ele>
        <time>2015-12-03T10:25:50Z</time>
      </trkpt>
      <trkpt lat="48.09689" lon="6.7986">
        <ele>783.1</ele>
        <time>2015-12-03T10:25:53Z</time>
      </trkpt>
      <trkpt lat="48.09682" lon="6.7985">
        <ele>782.4</ele>
        <time>2015-12-03T10:26:04Z</time>
      </trkpt>
      <trkpt lat="48.09675" lon="6.79841">
        <ele>783.6</ele>
        <time>2015-12-03T10:26:09Z</time>
      </trkpt>
      <trkpt lat="48.09668" lon="6.79834">
        <ele>784.9</ele>
        <time>2015-12-03T10:26:23Z</time>
      </trkpt>
      <trkpt lat="48.09661" lon="6.79825">
        <ele>784.9</ele>
        <time>2015-12-03T10:26:29Z</time>
      </trkpt>
      <trkpt lat="48.09655" lon="6.79818">
        <ele>784.9</ele>
        <time>2015-12-03T10:26:35Z</time>
      </trkpt>
      <trkpt lat="48.09648" lon="6.7981">
        <ele>784.9</ele>
        <time>2015-12-03T10:26:40Z</time>
      </trkpt>
      <trkpt lat="48.09641" lon="6.79801">
        <ele>784.9</ele>
        <time>2015-12-03T10:26:46Z</time>
      </trkpt>
      <trkpt lat="48.09635" lon="6.79791">
        <ele>784.9</ele>
        <time>2015-12-03T10:26:51Z</time>
      </trkpt>
      <trkpt lat="48.09627" lon="6.79784">
        <ele>784.9</ele>
        <time>2015-12-03T10:26:55Z</time>
      </trkpt>
      <trkpt lat="48.09619" lon="6.79778">
        <ele>784.9</ele>
        <time>2015-12-03T10:27:06Z</time>
      </trkpt>
      <trkpt lat="48.0961" lon="6.79776">
        <ele>784.9</ele>
        <time>2015-12-03T10:27:10Z</time>
      </trkpt>
      <trkpt lat="48.09602" lon="6.79776">
        <ele>784.9</ele>
        <time>2015-12-03T10:27:15Z</time>
      </trkpt>
      <trkpt lat="48.09593" lon="6.79779">
        <ele>784.5</ele>
        <time>2015-12-03T10:27:22Z</time>
      </trkpt>
      <trkpt lat="48.09584" lon="6.79782">
        <ele>783.3</ele>
        <time>2015-12-03T10:27:28Z</time>
      </trkpt>
      <trkpt lat="48.09576" lon="6.79784">
        <ele>782.5</ele>
        <time>2015-12-03T10:27:34Z</time>
      </trkpt>
      <trkpt lat="48.09567" lon="6.79788">
        <ele>781.8</ele>
        <time>2015-12-03T10:27:41Z</time>
      </trkpt>
      <trkpt lat="48.09558" lon="6.79787">
        <ele>781.1</ele>
        <time>2015-12-03T10:27:48Z</time>
      </trkpt>
      <trkpt lat="48.09549" lon="6.79786">
        <ele>780.4</ele>
        <time>2015-12-03T10:27:55Z</time>
      </trkpt>
      <trkpt lat="48.0954" lon="6.79783">
        <ele>779.6</ele>
        <time>2015-12-03T10:28:02Z</time>
      </trkpt>
      <trkpt lat="48.09532" lon="6.79781">
        <ele>778.9</ele>
        <time>2015-12-03T10:28:08Z</time>
      </trkpt>
      <trkpt lat="48.09524" lon="6.79778">
        <ele>778.2</ele>
        <time>2015-12-03T10:28:14Z</time>
      </trkpt>
      <trkpt lat="48.09515" lon="6.79776">
        <ele>777.5</ele>
        <time>2015-12-03T10:28:21Z</time>
      </trkpt>
      <trkpt lat="48.09507" lon="6.79775">
        <ele>776.7</ele>
        <time>2015-12-03T10:28:28Z</time>
      </trkpt>
      <trkpt lat="48.09498" lon="6.79773">
        <ele>776</ele>
        <time>2015-12-03T10:28:35Z</time>
      </trkpt>
      <trkpt lat="48.0949" lon="6.79778">
        <ele>774.8</ele>
        <time>2015-12-03T10:28:43Z</time>
      </trkpt>
      <trkpt lat="48.09484" lon="6.7977">
        <ele>773.6</ele>
        <time>2015-12-03T10:29:09Z</time>
      </trkpt>
      <trkpt lat="48.09477" lon="6.79764">
        <ele>772.5</ele>
        <time>2015-12-03T10:29:26Z</time>
      </trkpt>
      <trkpt lat="48.09471" lon="6.79755">
        <ele>772.1</ele>
        <time>2015-12-03T10:29:32Z</time>
      </trkpt>
      <trkpt lat="48.09465" lon="6.79747">
        <ele>771.7</ele>
        <time>2015-12-03T10:29:38Z</time>
      </trkpt>
      <trkpt lat="48.09458" lon="6.79739">
        <ele>771.4</ele>
        <time>2015-12-03T10:29:44Z</time>
      </trkpt>
      <trkpt lat="48.0945" lon="6.79732">
        <ele>771</ele>
        <time>2015-12-03T10:29:50Z</time>
      </trkpt>
      <trkpt lat="48.09443" lon="6.79724">
        <ele>770.6</ele>
        <time>2015-12-03T10:29:57Z</time>
      </trkpt>
      <trkpt lat="48.09438" lon="6.79714">
        <ele>770.3</ele>
        <time>2015-12-03T10:30:05Z</time>
      </trkpt>
      <trkpt lat="48.09431" lon="6.79708">
        <ele>769.9</ele>
        <time>2015-12-03T10:30:14Z</time>
      </trkpt>
      <trkpt lat="48.09423" lon="6.79701">
        <ele>769.5</ele>
        <time>2015-12-03T10:30:20Z</time>
      </trkpt>
      <trkpt lat="48.09417" lon="6.79693">
        <ele>770.4</ele>
        <time>2015-12-03T10:30:26Z</time>
      </trkpt>
      <trkpt lat="48.09409" lon="6.79687">
        <ele>770.4</ele>
        <time>2015-12-03T10:30:33Z</time>
      </trkpt>
      <trkpt lat="48.09401" lon="6.79691">
        <ele>769</ele>
        <time>2015-12-03T10:30:39Z</time>
      </trkpt>
      <trkpt lat="48.09394" lon="6.79697">
        <ele>766.8</ele>
        <time>2015-12-03T10:31:59Z</time>
      </trkpt>
      <trkpt lat="48.09386" lon="6.79704">
        <ele>764.6</ele>
        <time>2015-12-03T10:32:03Z</time>
      </trkpt>
      <trkpt lat="48.0938" lon="6.79714">
        <ele>762.5</ele>
        <time>2015-12-03T10:32:10Z</time>
      </trkpt>
      <trkpt lat="48.09376" lon="6.79727">
        <ele>760.3</ele>
        <time>2015-12-03T10:32:15Z</time>
      </trkpt>
      <trkpt lat="48.09372" lon="6.79739">
        <ele>758.1</ele>
        <time>2015-12-03T10:32:21Z</time>
      </trkpt>
      <trkpt lat="48.09364" lon="6.79745">
        <ele>755.9</ele>
        <time>2015-12-03T10:32:27Z</time>
      </trkpt>
      <trkpt lat="48.09356" lon="6.79747">
        <ele>753.7</ele>
        <time>2015-12-03T10:32:33Z</time>
      </trkpt>
      <trkpt lat="48.09347" lon="6.79749">
        <ele>751.5</ele>
        <time>2015-12-03T10:32:40Z</time>
      </trkpt>
      <trkpt lat="48.09339" lon="6.79746">
        <ele>749.4</ele>
        <time>2015-12-03T10:32:48Z</time>
      </trkpt>
      <trkpt lat="48.09331" lon="6.79751">
        <ele>748</ele>
        <time>2015-12-03T10:32:55Z</time>
      </trkpt>
      <trkpt lat="48.09325" lon="6.79761">
        <ele>747.8</ele>
        <time>2015-12-03T10:33:04Z</time>
      </trkpt>
      <trkpt lat="48.09318" lon="6.79771">
        <ele>747.6</ele>
        <time>2015-12-03T10:33:11Z</time>
      </trkpt>
      <trkpt lat="48.09312" lon="6.79783">
        <ele>747.5</ele>
        <time>2015-12-03T10:33:17Z</time>
      </trkpt>
      <trkpt lat="48.09304" lon="6.7979">
        <ele>747.3</ele>
        <time>2015-12-03T10:33:23Z</time>
      </trkpt>
      <trkpt lat="48.093" lon="6.79801">
        <ele>747.1</ele>
        <time>2015-12-03T10:33:31Z</time>
      </trkpt>
      <trkpt lat="48.09301" lon="6.79813">
        <ele>746.9</ele>
        <time>2015-12-03T10:33:37Z</time>
      </trkpt>
      <trkpt lat="48.09304" lon="6.79825">
        <ele>746.7</ele>
        <time>2015-12-03T10:33:43Z</time>
      </trkpt>
      <trkpt lat="48.09307" lon="6.79838">
        <ele>746.5</ele>
        <time>2015-12-03T10:33:51Z</time>
      </trkpt>
      <trkpt lat="48.09312" lon="6.79848">
        <ele>746.4</ele>
        <time>2015-12-03T10:33:58Z</time>
      </trkpt>
      <trkpt lat="48.09318" lon="6.79856">
        <ele>746.2</ele>
        <time>2015-12-03T10:34:04Z</time>
      </trkpt>
      <trkpt lat="48.09326" lon="6.79862">
        <ele>746</ele>
        <time>2015-12-03T10:34:10Z</time>
      </trkpt>
      <trkpt lat="48.09334" lon="6.79865">
        <ele>746</ele>
        <time>2015-12-03T10:34:17Z</time>
      </trkpt>
      <trkpt lat="48.09342" lon="6.79864">
        <ele>746.1</ele>
        <time>2015-12-03T10:34:23Z</time>
      </trkpt>
      <trkpt lat="48.09351" lon="6.79865">
        <ele>746.2</ele>
        <time>2015-12-03T10:34:29Z</time>
      </trkpt>
      <trkpt lat="48.09359" lon="6.79868">
        <ele>746.3</ele>
        <time>2015-12-03T10:34:35Z</time>
      </trkpt>
      <trkpt lat="48.09367" lon="6.79876">
        <ele>746.4</ele>
        <time>2015-12-03T10:34:42Z</time>
      </trkpt>
      <trkpt lat="48.09375" lon="6.79882">
        <ele>746.5</ele>
        <time>2015-12-03T10:34:48Z</time>
      </trkpt>
      <trkpt lat="48.09383" lon="6.79885">
        <ele>746.5</ele>
        <time>2015-12-03T10:34:54Z</time>
      </trkpt>
      <trkpt lat="48.09391" lon="6.79893">
        <ele>746.6</ele>
        <time>2015-12-03T10:35:00Z</time>
      </trkpt>
      <trkpt lat="48.09399" lon="6.79901">
        <ele>746.7</ele>
        <time>2015-12-03T10:35:07Z</time>
      </trkpt>
      <trkpt lat="48.09406" lon="6.7991">
        <ele>746.8</ele>
        <time>2015-12-03T10:35:13Z</time>
      </trkpt>
      <trkpt lat="48.09413" lon="6.79916">
        <ele>746.9</ele>
        <time>2015-12-03T10:35:20Z</time>
      </trkpt>
      <trkpt lat="48.09418" lon="6.79927">
        <ele>747</ele>
        <time>2015-12-03T10:35:25Z</time>
      </trkpt>
      <trkpt lat="48.09423" lon="6.79937">
        <ele>746.6</ele>
        <time>2015-12-03T10:35:33Z</time>
      </trkpt>
      <trkpt lat="48.0943" lon="6.79944">
        <ele>746.8</ele>
        <time>2015-12-03T10:35:38Z</time>
      </trkpt>
      <trkpt lat="48.09437" lon="6.79952">
        <ele>747</ele>
        <time>2015-12-03T10:35:44Z</time>
      </trkpt>
      <trkpt lat="48.09445" lon="6.79958">
        <ele>747.2</ele>
        <time>2015-12-03T10:35:54Z</time>
      </trkpt>
      <trkpt lat="48.09453" lon="6.79965">
        <ele>747.4</ele>
        <time>2015-12-03T10:36:00Z</time>
      </trkpt>
      <trkpt lat="48.09462" lon="6.7997">
        <ele>747.5</ele>
        <time>2015-12-03T10:36:06Z</time>
      </trkpt>
      <trkpt lat="48.09469" lon="6.79975">
        <ele>747.7</ele>
        <time>2015-12-03T10:36:12Z</time>
      </trkpt>
      <trkpt lat="48.09476" lon="6.79981">
        <ele>747.9</ele>
        <time>2015-12-03T10:36:18Z</time>
      </trkpt>
      <trkpt lat="48.09485" lon="6.79985">
        <ele>748.1</ele>
        <time>2015-12-03T10:36:25Z</time>
      </trkpt>
      <trkpt lat="48.09492" lon="6.79992">
        <ele>748.3</ele>
        <time>2015-12-03T10:36:31Z</time>
      </trkpt>
      <trkpt lat="48.095" lon="6.79996">
        <ele>748.5</ele>
        <time>2015-12-03T10:36:37Z</time>
      </trkpt>
      <trkpt lat="48.09509" lon="6.79998">
        <ele>749.7</ele>
        <time>2015-12-03T10:36:45Z</time>
      </trkpt>
      <trkpt lat="48.09517" lon="6.80001">
        <ele>750.5</ele>
        <time>2015-12-03T10:36:50Z</time>
      </trkpt>
      <trkpt lat="48.09526" lon="6.80005">
        <ele>751.2</ele>
        <time>2015-12-03T10:36:57Z</time>
      </trkpt>
      <trkpt lat="48.09534" lon="6.8001">
        <ele>751.7</ele>
        <time>2015-12-03T10:37:03Z</time>
      </trkpt>
      <trkpt lat="48.09543" lon="6.80014">
        <ele>752.3</ele>
        <time>2015-12-03T10:37:11Z</time>
      </trkpt>
      <trkpt lat="48.09549" lon="6.80024">
        <ele>752.8</ele>
        <time>2015-12-03T10:37:17Z</time>
      </trkpt>
      <trkpt lat="48.09556" lon="6.80033">
        <ele>753.4</ele>
        <time>2015-12-03T10:37:24Z</time>
      </trkpt>
      <trkpt lat="48.0956" lon="6.80045">
        <ele>753.9</ele>
        <time>2015-12-03T10:37:32Z</time>
      </trkpt>
      <trkpt lat="48.09563" lon="6.80057">
        <ele>754.5</ele>
        <time>2015-12-03T10:37:39Z</time>
      </trkpt>
      <trkpt lat="48.09563" lon="6.80071">
        <ele>755</ele>
        <time>2015-12-03T10:37:45Z</time>
      </trkpt>
      <trkpt lat="48.09563" lon="6.80084">
        <ele>755.5</ele>
        <time>2015-12-03T10:37:52Z</time>
      </trkpt>
      <trkpt lat="48.09562" lon="6.80096">
        <ele>755.4</ele>
        <time>2015-12-03T10:37:57Z</time>
      </trkpt>
      <trkpt lat="48.09562" lon="6.8011">
        <ele>755.2</ele>
        <time>2015-12-03T10:38:05Z</time>
      </trkpt>
      <trkpt lat="48.09562" lon="6.80124">
        <ele>755</ele>
        <time>2015-12-03T10:38:12Z</time>
      </trkpt>
      <trkpt lat="48.09562" lon="6.80137">
        <ele>755</ele>
        <time>2015-12-03T10:38:18Z</time>
      </trkpt>
      <trkpt lat="48.0956" lon="6.80149">
        <ele>755</ele>
        <time>2015-12-03T10:38:25Z</time>
      </trkpt>
      <trkpt lat="48.09559" lon="6.80162">
        <ele>755.1</ele>
        <time>2015-12-03T10:38:31Z</time>
      </trkpt>
      <trkpt lat="48.09558" lon="6.80175">
        <ele>754.1</ele>
        <time>2015-12-03T10:38:38Z</time>
      </trkpt>
      <trkpt lat="48.09559" lon="6.80187">
        <ele>753.1</ele>
        <time>2015-12-03T10:38:42Z</time>
      </trkpt>
      <trkpt lat="48.09557" lon="6.80199">
        <ele>752.1</ele>
        <time>2015-12-03T10:38:49Z</time>
      </trkpt>
      <trkpt lat="48.09552" lon="6.80211">
        <ele>751.1</ele>
        <time>2015-12-03T10:38:58Z</time>
      </trkpt>
      <trkpt lat="48.09547" lon="6.80223">
        <ele>750.1</ele>
        <time>2015-12-03T10:39:04Z</time>
      </trkpt>
      <trkpt lat="48.09543" lon="6.80235">
        <ele>749.1</ele>
        <time>2015-12-03T10:39:12Z</time>
      </trkpt>
      <trkpt lat="48.09541" lon="6.80249">
        <ele>748.1</ele>
        <time>2015-12-03T10:39:18Z</time>
      </trkpt>
      <trkpt lat="48.09538" lon="6.80262">
        <ele>747.7</ele>
        <time>2015-12-03T10:39:25Z</time>
      </trkpt>
      <trkpt lat="48.09533" lon="6.80272">
        <ele>747.4</ele>
        <time>2015-12-03T10:39:32Z</time>
      </trkpt>
      <trkpt lat="48.09527" lon="6.80282">
        <ele>747</ele>
        <time>2015-12-03T10:39:40Z</time>
      </trkpt>
      <trkpt lat="48.09521" lon="6.80291">
        <ele>746.5</ele>
        <time>2015-12-03T10:39:46Z</time>
      </trkpt>
      <trkpt lat="48.09513" lon="6.80295">
        <ele>747.2</ele>
        <time>2015-12-03T10:39:52Z</time>
      </trkpt>
      <trkpt lat="48.09505" lon="6.80298">
        <ele>747.8</ele>
        <time>2015-12-03T10:39:59Z</time>
      </trkpt>
      <trkpt lat="48.09498" lon="6.80306">
        <ele>748.5</ele>
        <time>2015-12-03T10:40:07Z</time>
      </trkpt>
      <trkpt lat="48.09492" lon="6.80315">
        <ele>748.4</ele>
        <time>2015-12-03T10:40:13Z</time>
      </trkpt>
      <trkpt lat="48.09485" lon="6.80321">
        <ele>748.3</ele>
        <time>2015-12-03T10:40:22Z</time>
      </trkpt>
      <trkpt lat="48.09479" lon="6.80331">
        <ele>748.9</ele>
        <time>2015-12-03T10:40:30Z</time>
      </trkpt>
      <trkpt lat="48.09474" lon="6.80343">
        <ele>749.5</ele>
        <time>2015-12-03T10:40:38Z</time>
      </trkpt>
      <trkpt lat="48.09469" lon="6.80354">
        <ele>749.5</ele>
        <time>2015-12-03T10:40:45Z</time>
      </trkpt>
      <trkpt lat="48.09464" lon="6.80364">
        <ele>749.5</ele>
        <time>2015-12-03T10:40:50Z</time>
      </trkpt>
      <trkpt lat="48.09459" lon="6.80374">
        <ele>749.5</ele>
        <time>2015-12-03T10:40:56Z</time>
      </trkpt>
      <trkpt lat="48.09455" lon="6.80386">
        <ele>749.5</ele>
        <time>2015-12-03T10:41:03Z</time>
      </trkpt>
      <trkpt lat="48.09448" lon="6.80396">
        <ele>749.5</ele>
        <time>2015-12-03T10:41:09Z</time>
      </trkpt>
      <trkpt lat="48.09444" lon="6.80407">
        <ele>749.5</ele>
        <time>2015-12-03T10:41:15Z</time>
      </trkpt>
      <trkpt lat="48.09438" lon="6.80416">
        <ele>749.5</ele>
        <time>2015-12-03T10:41:23Z</time>
      </trkpt>
      <trkpt lat="48.09432" lon="6.80425">
        <ele>750.2</ele>
        <time>2015-12-03T10:41:36Z</time>
      </trkpt>
      <trkpt lat="48.09438" lon="6.80434">
        <ele>751</ele>
        <time>2015-12-03T10:42:21Z</time>
      </trkpt>
      <trkpt lat="48.0943" lon="6.80435">
        <ele>751</ele>
        <time>2015-12-03T10:42:31Z</time>
      </trkpt>
      <trkpt lat="48.09422" lon="6.80432">
        <ele>751</ele>
        <time>2015-12-03T10:42:37Z</time>
      </trkpt>
      <trkpt lat="48.09427" lon="6.80442">
        <ele>751</ele>
        <time>2015-12-03T10:43:00Z</time>
      </trkpt>
    </trkseg>
  </trk>
</gpx>